<?xml version="1.0" encoding="UTF-8" standalone="no" ?>
<gpx xmlns="http://www.topografix.com/GPX/1/1" xmlns:xsi="http://www.w3.org/2001/XMLSchema-instance" xsi:schemaLocation="http://www.topografix.com/GPX/1/1 http://www.topografix.com/GPX/1/1/gpx.xsd" version="1.1" creator="VisuGPX - https://www.visugpx.com">
  <metadata>
    <name>ABR - Gravel</name>
  </metadata>
  <trk>
    <name><![CDATA[ABR - 05-03-2023 (KLAUS route) 01-03-2023]]></name>
    <trkseg>
      <trkpt lat="49.59149" lon="5.72485">
        <ele>270.067072</ele>
        <time>2023-01-23T20:52:37.235Z</time>
      </trkpt>
      <trkpt lat="49.59195" lon="5.72498">
        <ele>270.067072</ele>
        <time>2023-01-23T20:53:03.264Z</time>
      </trkpt>
      <trkpt lat="49.59176" lon="5.72543">
        <ele>270.067072</ele>
        <time>2023-01-23T20:53:19.087Z</time>
      </trkpt>
      <trkpt lat="49.59159" lon="5.7258">
        <ele>271.063531</ele>
        <time>2023-01-23T20:53:32.253Z</time>
      </trkpt>
      <trkpt lat="49.59156" lon="5.72585">
        <ele>271.273693</ele>
        <time>2023-01-23T20:53:33.975Z</time>
      </trkpt>
      <trkpt lat="49.59153" lon="5.72592">
        <ele>271.513784</ele>
        <time>2023-01-23T20:53:36.103Z</time>
      </trkpt>
      <trkpt lat="49.59113" lon="5.72665">
        <ele>274.383573</ele>
        <time>2023-01-23T20:54:03.164Z</time>
      </trkpt>
      <trkpt lat="49.5909" lon="5.72669">
        <ele>275.47346</ele>
        <time>2023-01-23T20:54:14.397Z</time>
      </trkpt>
      <trkpt lat="49.59085" lon="5.72666">
        <ele>275.702047</ele>
        <time>2023-01-23T20:54:16.584Z</time>
      </trkpt>
      <trkpt lat="49.59022" lon="5.72625">
        <ele>278.756696</ele>
        <time>2023-01-23T20:54:52.065Z</time>
      </trkpt>
      <trkpt lat="49.59008" lon="5.72616">
        <ele>279.282368</ele>
        <time>2023-01-23T20:54:59.129Z</time>
      </trkpt>
      <trkpt lat="49.58994" lon="5.72618">
        <ele>279.769762</ele>
        <time>2023-01-23T20:55:06.558Z</time>
      </trkpt>
      <trkpt lat="49.58957" lon="5.72613">
        <ele>281.031716</ele>
        <time>2023-01-23T20:55:21.889Z</time>
      </trkpt>
      <trkpt lat="49.58927" lon="5.72621">
        <ele>282.087308</ele>
        <time>2023-01-23T20:55:32.230Z</time>
      </trkpt>
      <trkpt lat="49.58895" lon="5.72646">
        <ele>283.336401</ele>
        <time>2023-01-23T20:55:44.903Z</time>
      </trkpt>
      <trkpt lat="49.58837" lon="5.72671">
        <ele>285.042687</ele>
        <time>2023-01-23T20:56:06.760Z</time>
      </trkpt>
      <trkpt lat="49.58803" lon="5.72697">
        <ele>285.756618</ele>
        <time>2023-01-23T20:56:19.782Z</time>
      </trkpt>
      <trkpt lat="49.58782" lon="5.72725">
        <ele>286.266574</ele>
        <time>2023-01-23T20:56:28.316Z</time>
      </trkpt>
      <trkpt lat="49.58771" lon="5.72741">
        <ele>286.561598</ele>
        <time>2023-01-23T20:56:33.411Z</time>
      </trkpt>
      <trkpt lat="49.58729" lon="5.72788">
        <ele>287.533992</ele>
        <time>2023-01-23T20:56:47.018Z</time>
      </trkpt>
      <trkpt lat="49.58714" lon="5.72818">
        <ele>288.019252</ele>
        <time>2023-01-23T20:56:54.052Z</time>
      </trkpt>
      <trkpt lat="49.58705" lon="5.72842">
        <ele>288.940739</ele>
        <time>2023-01-23T20:56:58.999Z</time>
      </trkpt>
      <trkpt lat="49.58701" lon="5.72861">
        <ele>289.608394</ele>
        <time>2023-01-23T20:57:03.469Z</time>
      </trkpt>
      <trkpt lat="49.58701" lon="5.72877">
        <ele>290.118461</ele>
        <time>2023-01-23T20:57:06.946Z</time>
      </trkpt>
      <trkpt lat="49.58707" lon="5.7288">
        <ele>290.44844</ele>
        <time>2023-01-23T20:57:09.235Z</time>
      </trkpt>
      <trkpt lat="49.58729" lon="5.72851">
        <ele>291.929368</ele>
        <time>2023-01-23T20:57:21.222Z</time>
      </trkpt>
      <trkpt lat="49.58743" lon="5.72847">
        <ele>292.657075</ele>
        <time>2023-01-23T20:57:28.599Z</time>
      </trkpt>
      <trkpt lat="49.5875" lon="5.72852">
        <ele>293.03257</ele>
        <time>2023-01-23T20:57:33.315Z</time>
      </trkpt>
      <trkpt lat="49.58754" lon="5.72861">
        <ele>293.418395</ele>
        <time>2023-01-23T20:57:37.870Z</time>
      </trkpt>
      <trkpt lat="49.58771" lon="5.72903">
        <ele>295.057601</ele>
        <time>2023-01-23T20:57:56.630Z</time>
      </trkpt>
      <trkpt lat="49.58794" lon="5.72932">
        <ele>296.541049</ele>
        <time>2023-01-23T20:58:12.841Z</time>
      </trkpt>
      <trkpt lat="49.58844" lon="5.72959">
        <ele>300.313703</ele>
        <time>2023-01-23T20:58:45.048Z</time>
      </trkpt>
      <trkpt lat="49.58854" lon="5.72966">
        <ele>301.114352</ele>
        <time>2023-01-23T20:58:51.075Z</time>
      </trkpt>
      <trkpt lat="49.58865" lon="5.7298">
        <ele>302.255448</ele>
        <time>2023-01-23T20:59:01.921Z</time>
      </trkpt>
      <trkpt lat="49.58908" lon="5.73035">
        <ele>306.486951</ele>
        <time>2023-01-23T20:59:36.677Z</time>
      </trkpt>
      <trkpt lat="49.58947" lon="5.73072">
        <ele>310.009359</ele>
        <time>2023-01-23T21:00:07.617Z</time>
      </trkpt>
      <trkpt lat="49.58998" lon="5.73109">
        <ele>313.702949</ele>
        <time>2023-01-23T21:00:40.895Z</time>
      </trkpt>
      <trkpt lat="49.5903" lon="5.73111">
        <ele>315.701602</ele>
        <time>2023-01-23T21:00:56.122Z</time>
      </trkpt>
      <trkpt lat="49.59041" lon="5.73118">
        <ele>316.456934</ele>
        <time>2023-01-23T21:01:01.900Z</time>
      </trkpt>
      <trkpt lat="49.59078" lon="5.7315">
        <ele>319.126603</ele>
        <time>2023-01-23T21:01:22.030Z</time>
      </trkpt>
      <trkpt lat="49.591" lon="5.73173">
        <ele>320.782728</ele>
        <time>2023-01-23T21:01:37.169Z</time>
      </trkpt>
      <trkpt lat="49.59119" lon="5.73197">
        <ele>322.347864</ele>
        <time>2023-01-23T21:01:52.841Z</time>
      </trkpt>
      <trkpt lat="49.59137" lon="5.73229">
        <ele>324.303541</ele>
        <time>2023-01-23T21:02:11.968Z</time>
      </trkpt>
      <trkpt lat="49.5917" lon="5.73296">
        <ele>328.146053</ele>
        <time>2023-01-23T21:02:47.277Z</time>
      </trkpt>
      <trkpt lat="49.59183" lon="5.73323">
        <ele>329.727855</ele>
        <time>2023-01-23T21:03:01.200Z</time>
      </trkpt>
      <trkpt lat="49.59193" lon="5.73365">
        <ele>331.780204</ele>
        <time>2023-01-23T21:03:19.209Z</time>
      </trkpt>
      <trkpt lat="49.59185" lon="5.7342">
        <ele>334.408242</ele>
        <time>2023-01-23T21:03:44.994Z</time>
      </trkpt>
      <trkpt lat="49.59189" lon="5.7346">
        <ele>335.494888</ele>
        <time>2023-01-23T21:04:01.336Z</time>
      </trkpt>
      <trkpt lat="49.59192" lon="5.73482">
        <ele>335.901913</ele>
        <time>2023-01-23T21:04:10.218Z</time>
      </trkpt>
      <trkpt lat="49.59192" lon="5.73507">
        <ele>336.340852</ele>
        <time>2023-01-23T21:04:19.606Z</time>
      </trkpt>
      <trkpt lat="49.5919" lon="5.73526">
        <ele>336.674143</ele>
        <time>2023-01-23T21:04:26.990Z</time>
      </trkpt>
      <trkpt lat="49.59183" lon="5.73559">
        <ele>337.290085</ele>
        <time>2023-01-23T21:04:38.908Z</time>
      </trkpt>
      <trkpt lat="49.59149" lon="5.73648">
        <ele>339.118727</ele>
        <time>2023-01-23T21:05:09.925Z</time>
      </trkpt>
      <trkpt lat="49.59136" lon="5.73704">
        <ele>339.904546</ele>
        <time>2023-01-23T21:05:24.280Z</time>
      </trkpt>
      <trkpt lat="49.59125" lon="5.73786">
        <ele>339.825569</ele>
        <time>2023-01-23T21:05:43.432Z</time>
      </trkpt>
      <trkpt lat="49.59117" lon="5.73876">
        <ele>339.739851</ele>
        <time>2023-01-23T21:06:04.309Z</time>
      </trkpt>
      <trkpt lat="49.59089" lon="5.74099">
        <ele>340.028832</ele>
        <time>2023-01-23T21:06:59.425Z</time>
      </trkpt>
      <trkpt lat="49.59078" lon="5.74093">
        <ele>340.076357</ele>
        <time>2023-01-23T21:07:02.133Z</time>
      </trkpt>
      <trkpt lat="49.59041" lon="5.74061">
        <ele>340.254749</ele>
        <time>2023-01-23T21:07:13.052Z</time>
      </trkpt>
      <trkpt lat="49.58851" lon="5.73888">
        <ele>343.156884</ele>
        <time>2023-01-23T21:08:25.551Z</time>
      </trkpt>
      <trkpt lat="49.58702" lon="5.73763">
        <ele>344.498584</ele>
        <time>2023-01-23T21:09:17.115Z</time>
      </trkpt>
      <trkpt lat="49.58661" lon="5.73718">
        <ele>343.069762</ele>
        <time>2023-01-23T21:09:27.765Z</time>
      </trkpt>
      <trkpt lat="49.58627" lon="5.73664">
        <ele>341.448175</ele>
        <time>2023-01-23T21:09:37.462Z</time>
      </trkpt>
      <trkpt lat="49.58535" lon="5.73509">
        <ele>336.027457</ele>
        <time>2023-01-23T21:10:01.699Z</time>
      </trkpt>
      <trkpt lat="49.58521" lon="5.73508">
        <ele>335.281501</ele>
        <time>2023-01-23T21:10:05.646Z</time>
      </trkpt>
      <trkpt lat="49.58508" lon="5.73512">
        <ele>334.609352</ele>
        <time>2023-01-23T21:10:09.225Z</time>
      </trkpt>
      <trkpt lat="49.58472" lon="5.73528">
        <ele>332.638663</ele>
        <time>2023-01-23T21:10:19.905Z</time>
      </trkpt>
      <trkpt lat="49.5844" lon="5.73522">
        <ele>330.977278</ele>
        <time>2023-01-23T21:10:29.220Z</time>
      </trkpt>
      <trkpt lat="49.58416" lon="5.73514">
        <ele>329.694323</ele>
        <time>2023-01-23T21:10:36.543Z</time>
      </trkpt>
      <trkpt lat="49.5839" lon="5.73496">
        <ele>328.115473</ele>
        <time>2023-01-23T21:10:45.380Z</time>
      </trkpt>
      <trkpt lat="49.58369" lon="5.7348">
        <ele>326.851589</ele>
        <time>2023-01-23T21:10:51.702Z</time>
      </trkpt>
      <trkpt lat="49.58366" lon="5.73478">
        <ele>326.663108</ele>
        <time>2023-01-23T21:10:52.839Z</time>
      </trkpt>
      <trkpt lat="49.58313" lon="5.73428">
        <ele>323.262571</ele>
        <time>2023-01-23T21:11:10.050Z</time>
      </trkpt>
      <trkpt lat="49.58273" lon="5.73416">
        <ele>321.067885</ele>
        <time>2023-01-23T21:11:21.597Z</time>
      </trkpt>
      <trkpt lat="49.58261" lon="5.73418">
        <ele>320.362601</ele>
        <time>2023-01-23T21:11:25.851Z</time>
      </trkpt>
      <trkpt lat="49.58276" lon="5.73434">
        <ele>319.327803</ele>
        <time>2023-01-23T21:11:28.573Z</time>
      </trkpt>
      <trkpt lat="49.5828" lon="5.73444">
        <ele>318.785131</ele>
        <time>2023-01-23T21:11:30.123Z</time>
      </trkpt>
      <trkpt lat="49.58282" lon="5.73455">
        <ele>318.268925</ele>
        <time>2023-01-23T21:11:31.484Z</time>
      </trkpt>
      <trkpt lat="49.58282" lon="5.73494">
        <ele>316.532558</ele>
        <time>2023-01-23T21:11:35.168Z</time>
      </trkpt>
      <trkpt lat="49.58291" lon="5.73534">
        <ele>314.607624</ele>
        <time>2023-01-23T21:11:39.319Z</time>
      </trkpt>
      <trkpt lat="49.58294" lon="5.73588">
        <ele>312.171019</ele>
        <time>2023-01-23T21:11:44.457Z</time>
      </trkpt>
      <trkpt lat="49.58308" lon="5.73618">
        <ele>310.477188</ele>
        <time>2023-01-23T21:11:48.117Z</time>
      </trkpt>
      <trkpt lat="49.5831" lon="5.73629">
        <ele>309.969494</ele>
        <time>2023-01-23T21:11:49.109Z</time>
      </trkpt>
      <trkpt lat="49.58314" lon="5.73674">
        <ele>307.920931</ele>
        <time>2023-01-23T21:11:53.417Z</time>
      </trkpt>
      <trkpt lat="49.58323" lon="5.73721">
        <ele>305.801965</ele>
        <time>2023-01-23T21:11:58.341Z</time>
      </trkpt>
      <trkpt lat="49.58323" lon="5.73727">
        <ele>305.564938</ele>
        <time>2023-01-23T21:11:58.914Z</time>
      </trkpt>
      <trkpt lat="49.58319" lon="5.73734">
        <ele>305.203481</ele>
        <time>2023-01-23T21:11:59.782Z</time>
      </trkpt>
      <trkpt lat="49.58299" lon="5.73738">
        <ele>303.926547</ele>
        <time>2023-01-23T21:12:02.984Z</time>
      </trkpt>
      <trkpt lat="49.58279" lon="5.73747">
        <ele>302.64154</ele>
        <time>2023-01-23T21:12:06.116Z</time>
      </trkpt>
      <trkpt lat="49.58237" lon="5.73767">
        <ele>299.920186</ele>
        <time>2023-01-23T21:12:12.802Z</time>
      </trkpt>
      <trkpt lat="49.58202" lon="5.73792">
        <ele>297.549204</ele>
        <time>2023-01-23T21:12:18.680Z</time>
      </trkpt>
      <trkpt lat="49.58189" lon="5.73817">
        <ele>296.257464</ele>
        <time>2023-01-23T21:12:21.905Z</time>
      </trkpt>
      <trkpt lat="49.58179" lon="5.73847">
        <ele>295.187208</ele>
        <time>2023-01-23T21:12:25.474Z</time>
      </trkpt>
      <trkpt lat="49.58158" lon="5.7397">
        <ele>292.054271</ele>
        <time>2023-01-23T21:12:39.496Z</time>
      </trkpt>
      <trkpt lat="49.5815" lon="5.73978">
        <ele>291.691364</ele>
        <time>2023-01-23T21:12:41.202Z</time>
      </trkpt>
      <trkpt lat="49.58136" lon="5.73977">
        <ele>291.152762</ele>
        <time>2023-01-23T21:12:43.723Z</time>
      </trkpt>
      <trkpt lat="49.58128" lon="5.73983">
        <ele>290.812413</ele>
        <time>2023-01-23T21:12:45.321Z</time>
      </trkpt>
      <trkpt lat="49.58107" lon="5.74073">
        <ele>288.573067</ele>
        <time>2023-01-23T21:12:56.552Z</time>
      </trkpt>
      <trkpt lat="49.58096" lon="5.74101">
        <ele>288.035245</ele>
        <time>2023-01-23T21:13:00.556Z</time>
      </trkpt>
      <trkpt lat="49.58075" lon="5.74138">
        <ele>287.231653</ele>
        <time>2023-01-23T21:13:06.719Z</time>
      </trkpt>
      <trkpt lat="49.58043" lon="5.74175">
        <ele>286.204498</ele>
        <time>2023-01-23T21:13:14.673Z</time>
      </trkpt>
      <trkpt lat="49.58028" lon="5.74185">
        <ele>285.80203</ele>
        <time>2023-01-23T21:13:17.748Z</time>
      </trkpt>
      <trkpt lat="49.58003" lon="5.74197">
        <ele>285.125855</ele>
        <time>2023-01-23T21:13:22.684Z</time>
      </trkpt>
      <trkpt lat="49.57973" lon="5.74202">
        <ele>284.357775</ele>
        <time>2023-01-23T21:13:28.122Z</time>
      </trkpt>
      <trkpt lat="49.5795" lon="5.7421">
        <ele>283.375457</ele>
        <time>2023-01-23T21:13:32.146Z</time>
      </trkpt>
      <trkpt lat="49.57923" lon="5.74226">
        <ele>282.014968</ele>
        <time>2023-01-23T21:13:37.118Z</time>
      </trkpt>
      <trkpt lat="49.57891" lon="5.74252">
        <ele>280.309554</ele>
        <time>2023-01-23T21:13:43.244Z</time>
      </trkpt>
      <trkpt lat="49.57799" lon="5.7431">
        <ele>275.680522</ele>
        <time>2023-01-23T21:13:59.647Z</time>
      </trkpt>
      <trkpt lat="49.57756" lon="5.74346">
        <ele>273.932755</ele>
        <time>2023-01-23T21:14:07.672Z</time>
      </trkpt>
      <trkpt lat="49.57701" lon="5.74403">
        <ele>271.568266</ele>
        <time>2023-01-23T21:14:19.010Z</time>
      </trkpt>
      <trkpt lat="49.57647" lon="5.74444">
        <ele>269.41048</ele>
        <time>2023-01-23T21:14:30.602Z</time>
      </trkpt>
      <trkpt lat="49.57619" lon="5.74454">
        <ele>269.302889</ele>
        <time>2023-01-23T21:14:36.823Z</time>
      </trkpt>
      <trkpt lat="49.57616" lon="5.74465">
        <ele>269.280851</ele>
        <time>2023-01-23T21:14:38.538Z</time>
      </trkpt>
      <trkpt lat="49.57623" lon="5.74503">
        <ele>269.207941</ele>
        <time>2023-01-23T21:14:44.419Z</time>
      </trkpt>
      <trkpt lat="49.57624" lon="5.74529">
        <ele>269.16061</ele>
        <time>2023-01-23T21:14:48.724Z</time>
      </trkpt>
      <trkpt lat="49.57619" lon="5.74542">
        <ele>269.132087</ele>
        <time>2023-01-23T21:14:51.074Z</time>
      </trkpt>
      <trkpt lat="49.57614" lon="5.74545">
        <ele>269.116474</ele>
        <time>2023-01-23T21:14:52.410Z</time>
      </trkpt>
      <trkpt lat="49.57559" lon="5.74538">
        <ele>268.960198</ele>
        <time>2023-01-23T21:15:06.582Z</time>
      </trkpt>
      <trkpt lat="49.57533" lon="5.74538">
        <ele>268.88615</ele>
        <time>2023-01-23T21:15:12.545Z</time>
      </trkpt>
      <trkpt lat="49.57447" lon="5.74552">
        <ele>267.56651</ele>
        <time>2023-01-23T21:15:31.038Z</time>
      </trkpt>
      <trkpt lat="49.57433" lon="5.74557">
        <ele>267.336746</ele>
        <time>2023-01-23T21:15:33.798Z</time>
      </trkpt>
      <trkpt lat="49.57281" lon="5.74653">
        <ele>264.68974</ele>
        <time>2023-01-23T21:16:04.054Z</time>
      </trkpt>
      <trkpt lat="49.57254" lon="5.74674">
        <ele>264.185604</ele>
        <time>2023-01-23T21:16:09.864Z</time>
      </trkpt>
      <trkpt lat="49.57178" lon="5.74739">
        <ele>263.237649</ele>
        <time>2023-01-23T21:16:28.457Z</time>
      </trkpt>
      <trkpt lat="49.57171" lon="5.74737">
        <ele>263.317808</ele>
        <time>2023-01-23T21:16:30.831Z</time>
      </trkpt>
      <trkpt lat="49.57154" lon="5.7472">
        <ele>263.525234</ele>
        <time>2023-01-23T21:16:36.172Z</time>
      </trkpt>
      <trkpt lat="49.5713" lon="5.74712">
        <ele>263.793671</ele>
        <time>2023-01-23T21:16:44.708Z</time>
      </trkpt>
      <trkpt lat="49.57141" lon="5.74762">
        <ele>264.156046</ele>
        <time>2023-01-23T21:16:55.446Z</time>
      </trkpt>
      <trkpt lat="49.5716" lon="5.74823">
        <ele>264.622045</ele>
        <time>2023-01-23T21:17:08.142Z</time>
      </trkpt>
      <trkpt lat="49.57167" lon="5.74859">
        <ele>264.881818</ele>
        <time>2023-01-23T21:17:15.822Z</time>
      </trkpt>
      <trkpt lat="49.57166" lon="5.74926">
        <ele>265.057174</ele>
        <time>2023-01-23T21:17:27.453Z</time>
      </trkpt>
      <trkpt lat="49.57171" lon="5.74971">
        <ele>265.138026</ele>
        <time>2023-01-23T21:17:34.872Z</time>
      </trkpt>
      <trkpt lat="49.57203" lon="5.75156">
        <ele>265.592828</ele>
        <time>2023-01-23T21:18:01.499Z</time>
      </trkpt>
      <trkpt lat="49.57211" lon="5.75201">
        <ele>266.019804</ele>
        <time>2023-01-23T21:18:08.139Z</time>
      </trkpt>
      <trkpt lat="49.57223" lon="5.75294">
        <ele>266.895917</ele>
        <time>2023-01-23T21:18:25.736Z</time>
      </trkpt>
      <trkpt lat="49.57259" lon="5.75462">
        <ele>268.493115</ele>
        <time>2023-01-23T21:19:06.066Z</time>
      </trkpt>
      <trkpt lat="49.57267" lon="5.75494">
        <ele>268.795596</ele>
        <time>2023-01-23T21:19:13.772Z</time>
      </trkpt>
      <trkpt lat="49.57297" lon="5.75576">
        <ele>269.603622</ele>
        <time>2023-01-23T21:19:32.644Z</time>
      </trkpt>
      <trkpt lat="49.57307" lon="5.75596">
        <ele>269.822858</ele>
        <time>2023-01-23T21:19:36.961Z</time>
      </trkpt>
      <trkpt lat="49.57335" lon="5.75629">
        <ele>270.302661</ele>
        <time>2023-01-23T21:19:44.547Z</time>
      </trkpt>
      <trkpt lat="49.57367" lon="5.75657">
        <ele>270.338395</ele>
        <time>2023-01-23T21:19:52.159Z</time>
      </trkpt>
      <trkpt lat="49.57399" lon="5.75707">
        <ele>270.228799</ele>
        <time>2023-01-23T21:20:01.270Z</time>
      </trkpt>
      <trkpt lat="49.57421" lon="5.75719">
        <ele>270.173423</ele>
        <time>2023-01-23T21:20:06.203Z</time>
      </trkpt>
      <trkpt lat="49.57448" lon="5.75724">
        <ele>270.10725</ele>
        <time>2023-01-23T21:20:11.745Z</time>
      </trkpt>
      <trkpt lat="49.57416" lon="5.75788">
        <ele>269.981411</ele>
        <time>2023-01-23T21:20:23.111Z</time>
      </trkpt>
      <trkpt lat="49.57437" lon="5.75833">
        <ele>271.03321</ele>
        <time>2023-01-23T21:20:32.489Z</time>
      </trkpt>
      <trkpt lat="49.57447" lon="5.75854">
        <ele>271.546458</ele>
        <time>2023-01-23T21:20:37.498Z</time>
      </trkpt>
      <trkpt lat="49.57461" lon="5.7589">
        <ele>272.410591</ele>
        <time>2023-01-23T21:20:47.437Z</time>
      </trkpt>
      <trkpt lat="49.57471" lon="5.75946">
        <ele>273.610828</ele>
        <time>2023-01-23T21:21:04.352Z</time>
      </trkpt>
      <trkpt lat="49.57478" lon="5.76055">
        <ele>275.954537</ele>
        <time>2023-01-23T21:21:36.648Z</time>
      </trkpt>
      <trkpt lat="49.57477" lon="5.76078">
        <ele>276.717381</ele>
        <time>2023-01-23T21:21:44.437Z</time>
      </trkpt>
      <trkpt lat="49.57466" lon="5.76114">
        <ele>278.022073</ele>
        <time>2023-01-23T21:21:55.531Z</time>
      </trkpt>
      <trkpt lat="49.5746" lon="5.76155">
        <ele>279.400756</ele>
        <time>2023-01-23T21:22:07.393Z</time>
      </trkpt>
      <trkpt lat="49.57452" lon="5.76262">
        <ele>282.941694</ele>
        <time>2023-01-23T21:22:40.591Z</time>
      </trkpt>
      <trkpt lat="49.57461" lon="5.76443">
        <ele>289.544733</ele>
        <time>2023-01-23T21:23:41.595Z</time>
      </trkpt>
      <trkpt lat="49.57466" lon="5.76662">
        <ele>297.705829</ele>
        <time>2023-01-23T21:24:55.177Z</time>
      </trkpt>
      <trkpt lat="49.57467" lon="5.76689">
        <ele>298.662007</ele>
        <time>2023-01-23T21:25:04.300Z</time>
      </trkpt>
      <trkpt lat="49.57474" lon="5.76737">
        <ele>300.394757</ele>
        <time>2023-01-23T21:25:20.759Z</time>
      </trkpt>
      <trkpt lat="49.57515" lon="5.76879">
        <ele>305.659624</ele>
        <time>2023-01-23T21:26:09.361Z</time>
      </trkpt>
      <trkpt lat="49.57577" lon="5.77063">
        <ele>310.80324</ele>
        <time>2023-01-23T21:27:04.800Z</time>
      </trkpt>
      <trkpt lat="49.57629" lon="5.77229">
        <ele>314.058751</ele>
        <time>2023-01-23T21:27:48.513Z</time>
      </trkpt>
      <trkpt lat="49.5764" lon="5.77257">
        <ele>314.55483</ele>
        <time>2023-01-23T21:27:55.433Z</time>
      </trkpt>
      <trkpt lat="49.57692" lon="5.77343">
        <ele>316.317859</ele>
        <time>2023-01-23T21:28:18.453Z</time>
      </trkpt>
      <trkpt lat="49.57735" lon="5.77399">
        <ele>317.527489</ele>
        <time>2023-01-23T21:28:36.360Z</time>
      </trkpt>
      <trkpt lat="49.57753" lon="5.77427">
        <ele>318.084735</ele>
        <time>2023-01-23T21:28:45.431Z</time>
      </trkpt>
      <trkpt lat="49.57775" lon="5.77471">
        <ele>318.846799</ele>
        <time>2023-01-23T21:28:57.865Z</time>
      </trkpt>
      <trkpt lat="49.57814" lon="5.77548">
        <ele>320.196322</ele>
        <time>2023-01-23T21:29:19.032Z</time>
      </trkpt>
      <trkpt lat="49.5783" lon="5.77591">
        <ele>320.898899</ele>
        <time>2023-01-23T21:29:29.108Z</time>
      </trkpt>
      <trkpt lat="49.5784" lon="5.77628">
        <ele>321.469595</ele>
        <time>2023-01-23T21:29:36.971Z</time>
      </trkpt>
      <trkpt lat="49.57855" lon="5.77702">
        <ele>322.554861</ele>
        <time>2023-01-23T21:29:52.933Z</time>
      </trkpt>
      <trkpt lat="49.57826" lon="5.77797">
        <ele>324.06084</ele>
        <time>2023-01-23T21:30:16.713Z</time>
      </trkpt>
      <trkpt lat="49.57824" lon="5.7781">
        <ele>324.334266</ele>
        <time>2023-01-23T21:30:19.715Z</time>
      </trkpt>
      <trkpt lat="49.57827" lon="5.77822">
        <ele>324.590972</ele>
        <time>2023-01-23T21:30:22.067Z</time>
      </trkpt>
      <trkpt lat="49.58045" lon="5.77574">
        <ele>333.050895</ele>
        <time>2023-01-23T21:32:07.249Z</time>
      </trkpt>
      <trkpt lat="49.58097" lon="5.77517">
        <ele>335.015578</ele>
        <time>2023-01-23T21:32:30.953Z</time>
      </trkpt>
      <trkpt lat="49.58125" lon="5.7749">
        <ele>335.733596</ele>
        <time>2023-01-23T21:32:42.624Z</time>
      </trkpt>
      <trkpt lat="49.5817" lon="5.77456">
        <ele>336.720444</ele>
        <time>2023-01-23T21:32:59.101Z</time>
      </trkpt>
      <trkpt lat="49.582" lon="5.7744">
        <ele>337.337485</ele>
        <time>2023-01-23T21:33:08.529Z</time>
      </trkpt>
      <trkpt lat="49.58395" lon="5.77334">
        <ele>340.748086</ele>
        <time>2023-01-23T21:34:11.137Z</time>
      </trkpt>
      <trkpt lat="49.58467" lon="5.77295">
        <ele>341.802732</ele>
        <time>2023-01-23T21:34:32.429Z</time>
      </trkpt>
      <trkpt lat="49.58476" lon="5.77355">
        <ele>342.299343</ele>
        <time>2023-01-23T21:34:49.740Z</time>
      </trkpt>
      <trkpt lat="49.58474" lon="5.77411">
        <ele>342.746582</ele>
        <time>2023-01-23T21:35:05.661Z</time>
      </trkpt>
      <trkpt lat="49.58468" lon="5.77434">
        <ele>342.944846</ele>
        <time>2023-01-23T21:35:12.706Z</time>
      </trkpt>
      <trkpt lat="49.58437" lon="5.77518">
        <ele>343.595609</ele>
        <time>2023-01-23T21:35:39.649Z</time>
      </trkpt>
      <trkpt lat="49.58414" lon="5.77654">
        <ele>343.340952</ele>
        <time>2023-01-23T21:36:17.493Z</time>
      </trkpt>
      <trkpt lat="49.58408" lon="5.77675">
        <ele>343.299679</ele>
        <time>2023-01-23T21:36:22.647Z</time>
      </trkpt>
      <trkpt lat="49.58396" lon="5.77699">
        <ele>343.244828</ele>
        <time>2023-01-23T21:36:29.515Z</time>
      </trkpt>
      <trkpt lat="49.58363" lon="5.77752">
        <ele>343.029529</ele>
        <time>2023-01-23T21:36:45.295Z</time>
      </trkpt>
      <trkpt lat="49.58343" lon="5.7778">
        <ele>342.005427</ele>
        <time>2023-01-23T21:36:53.636Z</time>
      </trkpt>
      <trkpt lat="49.5834" lon="5.77785">
        <ele>341.807882</ele>
        <time>2023-01-23T21:36:55.228Z</time>
      </trkpt>
      <trkpt lat="49.58323" lon="5.778">
        <ele>341.0471</ele>
        <time>2023-01-23T21:37:01.162Z</time>
      </trkpt>
      <trkpt lat="49.58298" lon="5.77823">
        <ele>339.940519</ele>
        <time>2023-01-23T21:37:09.601Z</time>
      </trkpt>
      <trkpt lat="49.58198" lon="5.779">
        <ele>335.685653</ele>
        <time>2023-01-23T21:37:42.246Z</time>
      </trkpt>
      <trkpt lat="49.58178" lon="5.77922">
        <ele>334.883176</ele>
        <time>2023-01-23T21:37:49.324Z</time>
      </trkpt>
      <trkpt lat="49.58163" lon="5.77943">
        <ele>334.232142</ele>
        <time>2023-01-23T21:37:55.227Z</time>
      </trkpt>
      <trkpt lat="49.58111" lon="5.78045">
        <ele>331.501317</ele>
        <time>2023-01-23T21:38:20.914Z</time>
      </trkpt>
      <trkpt lat="49.58098" lon="5.78075">
        <ele>330.724156</ele>
        <time>2023-01-23T21:38:28.807Z</time>
      </trkpt>
      <trkpt lat="49.58087" lon="5.78108">
        <ele>330.216966</ele>
        <time>2023-01-23T21:38:36.788Z</time>
      </trkpt>
      <trkpt lat="49.58064" lon="5.78209">
        <ele>329.732709</ele>
        <time>2023-01-23T21:39:01.542Z</time>
      </trkpt>
      <trkpt lat="49.58081" lon="5.78214">
        <ele>329.60912</ele>
        <time>2023-01-23T21:39:05.456Z</time>
      </trkpt>
      <trkpt lat="49.58096" lon="5.78218">
        <ele>329.501055</ele>
        <time>2023-01-23T21:39:08.836Z</time>
      </trkpt>
      <trkpt lat="49.58115" lon="5.78219">
        <ele>329.372504</ele>
        <time>2023-01-23T21:39:12.933Z</time>
      </trkpt>
      <trkpt lat="49.58137" lon="5.78216">
        <ele>329.220571</ele>
        <time>2023-01-23T21:39:17.797Z</time>
      </trkpt>
      <trkpt lat="49.58222" lon="5.7819">
        <ele>327.652063</ele>
        <time>2023-01-23T21:39:35.333Z</time>
      </trkpt>
      <trkpt lat="49.58241" lon="5.78192">
        <ele>327.222255</ele>
        <time>2023-01-23T21:39:38.859Z</time>
      </trkpt>
      <trkpt lat="49.58291" lon="5.78215">
        <ele>326.038783</ele>
        <time>2023-01-23T21:39:48.171Z</time>
      </trkpt>
      <trkpt lat="49.58306" lon="5.78214">
        <ele>325.700878</ele>
        <time>2023-01-23T21:39:50.710Z</time>
      </trkpt>
      <trkpt lat="49.58324" lon="5.7822">
        <ele>325.29832</ele>
        <time>2023-01-23T21:39:53.826Z</time>
      </trkpt>
      <trkpt lat="49.58344" lon="5.78221">
        <ele>324.708288</ele>
        <time>2023-01-23T21:39:57.152Z</time>
      </trkpt>
      <trkpt lat="49.58444" lon="5.7821">
        <ele>320.164893</ele>
        <time>2023-01-23T21:40:12.907Z</time>
      </trkpt>
      <trkpt lat="49.58469" lon="5.78216">
        <ele>319.001248</ele>
        <time>2023-01-23T21:40:16.948Z</time>
      </trkpt>
      <trkpt lat="49.58504" lon="5.78235">
        <ele>317.329798</ele>
        <time>2023-01-23T21:40:23.035Z</time>
      </trkpt>
      <trkpt lat="49.58538" lon="5.7826">
        <ele>316.208416</ele>
        <time>2023-01-23T21:40:29.341Z</time>
      </trkpt>
      <trkpt lat="49.58555" lon="5.78262">
        <ele>315.818975</ele>
        <time>2023-01-23T21:40:32.203Z</time>
      </trkpt>
      <trkpt lat="49.58572" lon="5.78248">
        <ele>315.36606</ele>
        <time>2023-01-23T21:40:35.571Z</time>
      </trkpt>
      <trkpt lat="49.58622" lon="5.7818">
        <ele>313.821929</ele>
        <time>2023-01-23T21:40:47.232Z</time>
      </trkpt>
      <trkpt lat="49.58652" lon="5.78132">
        <ele>312.817491</ele>
        <time>2023-01-23T21:40:55.601Z</time>
      </trkpt>
      <trkpt lat="49.58696" lon="5.78036">
        <ele>313.336054</ele>
        <time>2023-01-23T21:41:13.192Z</time>
      </trkpt>
      <trkpt lat="49.5877" lon="5.77918">
        <ele>314.432009</ele>
        <time>2023-01-23T21:41:44.261Z</time>
      </trkpt>
      <trkpt lat="49.58802" lon="5.77874">
        <ele>316.610975</ele>
        <time>2023-01-23T21:42:01.201Z</time>
      </trkpt>
      <trkpt lat="49.58817" lon="5.7786">
        <ele>317.591706</ele>
        <time>2023-01-23T21:42:08.506Z</time>
      </trkpt>
      <trkpt lat="49.58861" lon="5.77828">
        <ele>320.318366</ele>
        <time>2023-01-23T21:42:31.109Z</time>
      </trkpt>
      <trkpt lat="49.58873" lon="5.77828">
        <ele>321.03313</ele>
        <time>2023-01-23T21:42:39.719Z</time>
      </trkpt>
      <trkpt lat="49.58909" lon="5.7785">
        <ele>323.176564</ele>
        <time>2023-01-23T21:43:03.326Z</time>
      </trkpt>
      <trkpt lat="49.58958" lon="5.77904">
        <ele>327.3996</ele>
        <time>2023-01-23T21:43:44.115Z</time>
      </trkpt>
      <trkpt lat="49.59025" lon="5.77968">
        <ele>333.619951</ele>
        <time>2023-01-23T21:44:36.613Z</time>
      </trkpt>
      <trkpt lat="49.59058" lon="5.77994">
        <ele>336.573516</ele>
        <time>2023-01-23T21:45:00.418Z</time>
      </trkpt>
      <trkpt lat="49.59137" lon="5.78072">
        <ele>342.165899</ele>
        <time>2023-01-23T21:45:56.348Z</time>
      </trkpt>
      <trkpt lat="49.59155" lon="5.78084">
        <ele>343.161888</ele>
        <time>2023-01-23T21:46:06.868Z</time>
      </trkpt>
      <trkpt lat="49.59164" lon="5.78087">
        <ele>343.627318</ele>
        <time>2023-01-23T21:46:10.783Z</time>
      </trkpt>
      <trkpt lat="49.59178" lon="5.78084">
        <ele>344.295752</ele>
        <time>2023-01-23T21:46:17.888Z</time>
      </trkpt>
      <trkpt lat="49.59272" lon="5.78056">
        <ele>348.389578</ele>
        <time>2023-01-23T21:46:57.027Z</time>
      </trkpt>
      <trkpt lat="49.59345" lon="5.78024">
        <ele>349.815631</ele>
        <time>2023-01-23T21:47:24.606Z</time>
      </trkpt>
      <trkpt lat="49.59383" lon="5.78012">
        <ele>350.537894</ele>
        <time>2023-01-23T21:47:36.641Z</time>
      </trkpt>
      <trkpt lat="49.59429" lon="5.78005">
        <ele>351.36155</ele>
        <time>2023-01-23T21:47:49.590Z</time>
      </trkpt>
      <trkpt lat="49.59443" lon="5.78007">
        <ele>351.528685</ele>
        <time>2023-01-23T21:47:53.377Z</time>
      </trkpt>
      <trkpt lat="49.59456" lon="5.78013">
        <ele>351.703044</ele>
        <time>2023-01-23T21:47:57.340Z</time>
      </trkpt>
      <trkpt lat="49.59477" lon="5.78029">
        <ele>351.977792</ele>
        <time>2023-01-23T21:48:03.806Z</time>
      </trkpt>
      <trkpt lat="49.59485" lon="5.78039">
        <ele>352.108703</ele>
        <time>2023-01-23T21:48:06.884Z</time>
      </trkpt>
      <trkpt lat="49.59493" lon="5.78053">
        <ele>352.247433</ele>
        <time>2023-01-23T21:48:09.946Z</time>
      </trkpt>
      <trkpt lat="49.59543" lon="5.78192">
        <ele>353.503859</ele>
        <time>2023-01-23T21:48:42.173Z</time>
      </trkpt>
      <trkpt lat="49.59553" lon="5.78209">
        <ele>353.891151</ele>
        <time>2023-01-23T21:48:47.890Z</time>
      </trkpt>
      <trkpt lat="49.5969" lon="5.78391">
        <ele>358.567152</ele>
        <time>2023-01-23T21:49:57.359Z</time>
      </trkpt>
      <trkpt lat="49.59694" lon="5.78444">
        <ele>359.589611</ele>
        <time>2023-01-23T21:50:09.686Z</time>
      </trkpt>
      <trkpt lat="49.5971" lon="5.78638">
        <ele>363.300162</ele>
        <time>2023-01-23T21:50:56.997Z</time>
      </trkpt>
      <trkpt lat="49.59713" lon="5.78771">
        <ele>365.770143</ele>
        <time>2023-01-23T21:51:29.502Z</time>
      </trkpt>
      <trkpt lat="49.59713" lon="5.78824">
        <ele>366.747618</ele>
        <time>2023-01-23T21:51:42.151Z</time>
      </trkpt>
      <trkpt lat="49.59708" lon="5.7894">
        <ele>368.809543</ele>
        <time>2023-01-23T21:52:09.230Z</time>
      </trkpt>
      <trkpt lat="49.59713" lon="5.78949">
        <ele>368.988209</ele>
        <time>2023-01-23T21:52:13.160Z</time>
      </trkpt>
      <trkpt lat="49.59716" lon="5.78961">
        <ele>369.174883</ele>
        <time>2023-01-23T21:52:17.010Z</time>
      </trkpt>
      <trkpt lat="49.59713" lon="5.79112">
        <ele>371.376958</ele>
        <time>2023-01-23T21:53:02.257Z</time>
      </trkpt>
      <trkpt lat="49.59697" lon="5.79218">
        <ele>372.980157</ele>
        <time>2023-01-23T21:53:37.309Z</time>
      </trkpt>
      <trkpt lat="49.59675" lon="5.79281">
        <ele>374.070924</ele>
        <time>2023-01-23T21:54:00.107Z</time>
      </trkpt>
      <trkpt lat="49.59674" lon="5.79295">
        <ele>374.278388</ele>
        <time>2023-01-23T21:54:05.643Z</time>
      </trkpt>
      <trkpt lat="49.59666" lon="5.79366">
        <ele>375.368372</ele>
        <time>2023-01-23T21:54:28.928Z</time>
      </trkpt>
      <trkpt lat="49.59653" lon="5.79418">
        <ele>376.213631</ele>
        <time>2023-01-23T21:54:46.347Z</time>
      </trkpt>
      <trkpt lat="49.59648" lon="5.79463">
        <ele>376.704719</ele>
        <time>2023-01-23T21:55:00.261Z</time>
      </trkpt>
      <trkpt lat="49.59641" lon="5.79496">
        <ele>376.614463</ele>
        <time>2023-01-23T21:55:09.710Z</time>
      </trkpt>
      <trkpt lat="49.59627" lon="5.79535">
        <ele>376.500066</ele>
        <time>2023-01-23T21:55:22.929Z</time>
      </trkpt>
      <trkpt lat="49.596" lon="5.79575">
        <ele>376.350492</ele>
        <time>2023-01-23T21:55:36.530Z</time>
      </trkpt>
      <trkpt lat="49.5958" lon="5.7962">
        <ele>376.209255</ele>
        <time>2023-01-23T21:55:48.380Z</time>
      </trkpt>
      <trkpt lat="49.59537" lon="5.79718">
        <ele>375.401514</ele>
        <time>2023-01-23T21:56:12.750Z</time>
      </trkpt>
      <trkpt lat="49.59495" lon="5.79806">
        <ele>373.847163</ele>
        <time>2023-01-23T21:56:36.084Z</time>
      </trkpt>
      <trkpt lat="49.59532" lon="5.79856">
        <ele>372.781449</ele>
        <time>2023-01-23T21:56:51.979Z</time>
      </trkpt>
      <trkpt lat="49.59549" lon="5.79855">
        <ele>372.408454</ele>
        <time>2023-01-23T21:56:58.489Z</time>
      </trkpt>
      <trkpt lat="49.59568" lon="5.79845">
        <ele>371.802146</ele>
        <time>2023-01-23T21:57:04.542Z</time>
      </trkpt>
      <trkpt lat="49.59583" lon="5.79822">
        <ele>370.735898</ele>
        <time>2023-01-23T21:57:11.326Z</time>
      </trkpt>
      <trkpt lat="49.59606" lon="5.79779">
        <ele>368.9246</ele>
        <time>2023-01-23T21:57:21.939Z</time>
      </trkpt>
      <trkpt lat="49.5963" lon="5.79742">
        <ele>367.227883</ele>
        <time>2023-01-23T21:57:31.711Z</time>
      </trkpt>
      <trkpt lat="49.59642" lon="5.79733">
        <ele>366.535074</ele>
        <time>2023-01-23T21:57:35.551Z</time>
      </trkpt>
      <trkpt lat="49.5967" lon="5.7973">
        <ele>365.105095</ele>
        <time>2023-01-23T21:57:44.124Z</time>
      </trkpt>
      <trkpt lat="49.59717" lon="5.79774">
        <ele>361.892982</ele>
        <time>2023-01-23T21:57:58.874Z</time>
      </trkpt>
      <trkpt lat="49.59752" lon="5.79833">
        <ele>357.507897</ele>
        <time>2023-01-23T21:58:12.314Z</time>
      </trkpt>
      <trkpt lat="49.598" lon="5.79938">
        <ele>350.445745</ele>
        <time>2023-01-23T21:58:33.990Z</time>
      </trkpt>
      <trkpt lat="49.59809" lon="5.79957">
        <ele>349.113286</ele>
        <time>2023-01-23T21:58:38.036Z</time>
      </trkpt>
      <trkpt lat="49.5983" lon="5.80019">
        <ele>346.049451</ele>
        <time>2023-01-23T21:58:50.485Z</time>
      </trkpt>
      <trkpt lat="49.59849" lon="5.80114">
        <ele>342.240499</ele>
        <time>2023-01-23T21:59:08.424Z</time>
      </trkpt>
      <trkpt lat="49.59854" lon="5.8017">
        <ele>340.043292</ele>
        <time>2023-01-23T21:59:18.616Z</time>
      </trkpt>
      <trkpt lat="49.59857" lon="5.80261">
        <ele>336.511678</ele>
        <time>2023-01-23T21:59:35.974Z</time>
      </trkpt>
      <trkpt lat="49.59868" lon="5.80365">
        <ele>332.225691</ele>
        <time>2023-01-23T21:59:56.121Z</time>
      </trkpt>
      <trkpt lat="49.5987" lon="5.80375">
        <ele>331.792063</ele>
        <time>2023-01-23T21:59:57.882Z</time>
      </trkpt>
      <trkpt lat="49.59904" lon="5.8055">
        <ele>324.714912</ele>
        <time>2023-01-23T22:00:29.751Z</time>
      </trkpt>
      <trkpt lat="49.59929" lon="5.80658">
        <ele>321.227742</ele>
        <time>2023-01-23T22:00:50.420Z</time>
      </trkpt>
      <trkpt lat="49.59927" lon="5.80686">
        <ele>320.358626</ele>
        <time>2023-01-23T22:00:55.914Z</time>
      </trkpt>
      <trkpt lat="49.59921" lon="5.80721">
        <ele>319.28486</ele>
        <time>2023-01-23T22:01:02.471Z</time>
      </trkpt>
      <trkpt lat="49.59915" lon="5.80699">
        <ele>318.580285</ele>
        <time>2023-01-23T22:01:07.758Z</time>
      </trkpt>
      <trkpt lat="49.59895" lon="5.80657">
        <ele>317.660085</ele>
        <time>2023-01-23T22:01:18.955Z</time>
      </trkpt>
      <trkpt lat="49.59887" lon="5.80628">
        <ele>318.308593</ele>
        <time>2023-01-23T22:01:25.853Z</time>
      </trkpt>
      <trkpt lat="49.59843" lon="5.8053">
        <ele>320.756946</ele>
        <time>2023-01-23T22:02:04.966Z</time>
      </trkpt>
      <trkpt lat="49.59826" lon="5.80446">
        <ele>322.583304</ele>
        <time>2023-01-23T22:02:45.488Z</time>
      </trkpt>
      <trkpt lat="49.59818" lon="5.80385">
        <ele>324.41348</ele>
        <time>2023-01-23T22:03:12.625Z</time>
      </trkpt>
      <trkpt lat="49.59818" lon="5.80264">
        <ele>328.679681</ele>
        <time>2023-01-23T22:04:05.089Z</time>
      </trkpt>
      <trkpt lat="49.59802" lon="5.8014">
        <ele>332.987416</ele>
        <time>2023-01-23T22:04:54.248Z</time>
      </trkpt>
      <trkpt lat="49.59801" lon="5.80114">
        <ele>333.295131</ele>
        <time>2023-01-23T22:05:07.400Z</time>
      </trkpt>
      <trkpt lat="49.59755" lon="5.79987">
        <ele>335.031117</ele>
        <time>2023-01-23T22:05:55.709Z</time>
      </trkpt>
      <trkpt lat="49.59733" lon="5.79961">
        <ele>335.540677</ele>
        <time>2023-01-23T22:06:06.238Z</time>
      </trkpt>
      <trkpt lat="49.59723" lon="5.79959">
        <ele>335.731514</ele>
        <time>2023-01-23T22:06:09.694Z</time>
      </trkpt>
      <trkpt lat="49.59709" lon="5.79962">
        <ele>335.981553</ele>
        <time>2023-01-23T22:06:15.985Z</time>
      </trkpt>
      <trkpt lat="49.59719" lon="5.80049">
        <ele>333.923043</ele>
        <time>2023-01-23T22:06:33.777Z</time>
      </trkpt>
      <trkpt lat="49.59724" lon="5.80092">
        <ele>332.492088</ele>
        <time>2023-01-23T22:06:42.242Z</time>
      </trkpt>
      <trkpt lat="49.59747" lon="5.80199">
        <ele>328.767006</ele>
        <time>2023-01-23T22:07:02.831Z</time>
      </trkpt>
      <trkpt lat="49.59753" lon="5.80251">
        <ele>327.001299</ele>
        <time>2023-01-23T22:07:11.733Z</time>
      </trkpt>
      <trkpt lat="49.59732" lon="5.80471">
        <ele>315.548337</ele>
        <time>2023-01-23T22:07:50.030Z</time>
      </trkpt>
      <trkpt lat="49.59729" lon="5.80516">
        <ele>313.207185</ele>
        <time>2023-01-23T22:07:57.956Z</time>
      </trkpt>
      <trkpt lat="49.59733" lon="5.80602">
        <ele>309.271567</ele>
        <time>2023-01-23T22:08:13.059Z</time>
      </trkpt>
      <trkpt lat="49.59755" lon="5.80738">
        <ele>302.981121</ele>
        <time>2023-01-23T22:08:37.798Z</time>
      </trkpt>
      <trkpt lat="49.59768" lon="5.80833">
        <ele>299.069127</ele>
        <time>2023-01-23T22:08:55.289Z</time>
      </trkpt>
      <trkpt lat="49.59772" lon="5.80851">
        <ele>298.462847</ele>
        <time>2023-01-23T22:08:58.662Z</time>
      </trkpt>
      <trkpt lat="49.59779" lon="5.80899">
        <ele>296.865972</ele>
        <time>2023-01-23T22:09:07.601Z</time>
      </trkpt>
      <trkpt lat="49.59785" lon="5.80981">
        <ele>294.240885</ele>
        <time>2023-01-23T22:09:22.833Z</time>
      </trkpt>
      <trkpt lat="49.59784" lon="5.81061">
        <ele>291.657084</ele>
        <time>2023-01-23T22:09:38.207Z</time>
      </trkpt>
      <trkpt lat="49.59771" lon="5.81075">
        <ele>291.218812</ele>
        <time>2023-01-23T22:09:41.210Z</time>
      </trkpt>
      <trkpt lat="49.59665" lon="5.81228">
        <ele>289.551352</ele>
        <time>2023-01-23T22:10:11.064Z</time>
      </trkpt>
      <trkpt lat="49.59649" lon="5.81247">
        <ele>289.325923</ele>
        <time>2023-01-23T22:10:16.823Z</time>
      </trkpt>
      <trkpt lat="49.59648" lon="5.81236">
        <ele>289.242512</ele>
        <time>2023-01-23T22:10:19.739Z</time>
      </trkpt>
      <trkpt lat="49.59649" lon="5.81247">
        <ele>289.156449</ele>
        <time>2023-01-23T22:10:21.232Z</time>
      </trkpt>
      <trkpt lat="49.5959" lon="5.81304">
        <ele>288.314812</ele>
        <time>2023-01-23T22:10:38.781Z</time>
      </trkpt>
      <trkpt lat="49.5959" lon="5.81316">
        <ele>288.222937</ele>
        <time>2023-01-23T22:10:40.281Z</time>
      </trkpt>
      <trkpt lat="49.59548" lon="5.81326">
        <ele>287.715917</ele>
        <time>2023-01-23T22:10:48.259Z</time>
      </trkpt>
      <trkpt lat="49.59523" lon="5.81342">
        <ele>287.390712</ele>
        <time>2023-01-23T22:10:53.070Z</time>
      </trkpt>
      <trkpt lat="49.59508" lon="5.81355">
        <ele>287.183079</ele>
        <time>2023-01-23T22:10:56.144Z</time>
      </trkpt>
      <trkpt lat="49.59531" lon="5.8145">
        <ele>284.910276</ele>
        <time>2023-01-23T22:11:07.366Z</time>
      </trkpt>
      <trkpt lat="49.59536" lon="5.81517">
        <ele>283.308052</ele>
        <time>2023-01-23T22:11:14.524Z</time>
      </trkpt>
      <trkpt lat="49.59537" lon="5.8156">
        <ele>282.285356</ele>
        <time>2023-01-23T22:11:19.093Z</time>
      </trkpt>
      <trkpt lat="49.59531" lon="5.8158">
        <ele>281.758037</ele>
        <time>2023-01-23T22:11:21.393Z</time>
      </trkpt>
      <trkpt lat="49.59518" lon="5.81607">
        <ele>280.969828</ele>
        <time>2023-01-23T22:11:24.952Z</time>
      </trkpt>
      <trkpt lat="49.59515" lon="5.81623">
        <ele>280.571846</ele>
        <time>2023-01-23T22:11:26.716Z</time>
      </trkpt>
      <trkpt lat="49.59515" lon="5.81629">
        <ele>280.494918</ele>
        <time>2023-01-23T22:11:27.316Z</time>
      </trkpt>
      <trkpt lat="49.59514" lon="5.81662">
        <ele>280.181169</ele>
        <time>2023-01-23T22:11:30.946Z</time>
      </trkpt>
      <trkpt lat="49.59522" lon="5.81745">
        <ele>279.369938</ele>
        <time>2023-01-23T22:11:40.847Z</time>
      </trkpt>
      <trkpt lat="49.59529" lon="5.81742">
        <ele>279.258446</ele>
        <time>2023-01-23T22:11:42.426Z</time>
      </trkpt>
      <trkpt lat="49.59607" lon="5.81695">
        <ele>278.008875</ele>
        <time>2023-01-23T22:12:00.754Z</time>
      </trkpt>
      <trkpt lat="49.59618" lon="5.81685">
        <ele>277.87344</ele>
        <time>2023-01-23T22:12:03.716Z</time>
      </trkpt>
      <trkpt lat="49.5962" lon="5.81669">
        <ele>277.906069</ele>
        <time>2023-01-23T22:12:06.078Z</time>
      </trkpt>
      <trkpt lat="49.59645" lon="5.8162">
        <ele>278.031392</ele>
        <time>2023-01-23T22:12:16.003Z</time>
      </trkpt>
      <trkpt lat="49.59651" lon="5.81616">
        <ele>278.05209</ele>
        <time>2023-01-23T22:12:17.594Z</time>
      </trkpt>
      <trkpt lat="49.59663" lon="5.81616">
        <ele>278.087308</ele>
        <time>2023-01-23T22:12:20.470Z</time>
      </trkpt>
      <trkpt lat="49.59705" lon="5.81631">
        <ele>278.222477</ele>
        <time>2023-01-23T22:12:31.367Z</time>
      </trkpt>
      <trkpt lat="49.59733" lon="5.8163">
        <ele>278.308688</ele>
        <time>2023-01-23T22:12:38.156Z</time>
      </trkpt>
      <trkpt lat="49.59791" lon="5.8164">
        <ele>278.534205</ele>
        <time>2023-01-23T22:12:51.606Z</time>
      </trkpt>
      <trkpt lat="49.59803" lon="5.81649">
        <ele>278.602648</ele>
        <time>2023-01-23T22:12:54.443Z</time>
      </trkpt>
      <trkpt lat="49.59819" lon="5.81653">
        <ele>278.691549</ele>
        <time>2023-01-23T22:12:58.427Z</time>
      </trkpt>
      <trkpt lat="49.59882" lon="5.81636">
        <ele>279.025677</ele>
        <time>2023-01-23T22:13:13.893Z</time>
      </trkpt>
      <trkpt lat="49.59899" lon="5.81627">
        <ele>279.118222</ele>
        <time>2023-01-23T22:13:18.848Z</time>
      </trkpt>
      <trkpt lat="49.59915" lon="5.81628">
        <ele>279.205361</ele>
        <time>2023-01-23T22:13:23.214Z</time>
      </trkpt>
      <trkpt lat="49.59921" lon="5.81596">
        <ele>279.31636</ele>
        <time>2023-01-23T22:13:29.121Z</time>
      </trkpt>
      <trkpt lat="49.59932" lon="5.816">
        <ele>279.386332</ele>
        <time>2023-01-23T22:13:32.225Z</time>
      </trkpt>
      <trkpt lat="49.59938" lon="5.816">
        <ele>279.434094</ele>
        <time>2023-01-23T22:13:33.806Z</time>
      </trkpt>
      <trkpt lat="49.59982" lon="5.81592">
        <ele>279.796971</ele>
        <time>2023-01-23T22:13:45.976Z</time>
      </trkpt>
      <trkpt lat="49.59992" lon="5.81592">
        <ele>279.877627</ele>
        <time>2023-01-23T22:13:48.607Z</time>
      </trkpt>
      <trkpt lat="49.60006" lon="5.816">
        <ele>279.999359</ele>
        <time>2023-01-23T22:13:52.631Z</time>
      </trkpt>
      <trkpt lat="49.60025" lon="5.81614">
        <ele>280.174595</ele>
        <time>2023-01-23T22:13:58.516Z</time>
      </trkpt>
      <trkpt lat="49.60034" lon="5.81628">
        <ele>280.279321</ele>
        <time>2023-01-23T22:14:01.985Z</time>
      </trkpt>
      <trkpt lat="49.60049" lon="5.81659">
        <ele>280.486421</ele>
        <time>2023-01-23T22:14:08.583Z</time>
      </trkpt>
      <trkpt lat="49.60057" lon="5.81665">
        <ele>280.559127</ele>
        <time>2023-01-23T22:14:11.152Z</time>
      </trkpt>
      <trkpt lat="49.60066" lon="5.81666">
        <ele>280.637621</ele>
        <time>2023-01-23T22:14:13.949Z</time>
      </trkpt>
      <trkpt lat="49.60095" lon="5.81655">
        <ele>280.857147</ele>
        <time>2023-01-23T22:14:22.202Z</time>
      </trkpt>
      <trkpt lat="49.6012" lon="5.81654">
        <ele>280.926557</ele>
        <time>2023-01-23T22:14:28.915Z</time>
      </trkpt>
      <trkpt lat="49.60136" lon="5.81639">
        <ele>280.978305</ele>
        <time>2023-01-23T22:14:33.928Z</time>
      </trkpt>
      <trkpt lat="49.60158" lon="5.816">
        <ele>281.07239</ele>
        <time>2023-01-23T22:14:42.424Z</time>
      </trkpt>
      <trkpt lat="49.6016" lon="5.81593">
        <ele>281.085293</ele>
        <time>2023-01-23T22:14:43.393Z</time>
      </trkpt>
      <trkpt lat="49.60158" lon="5.8159">
        <ele>281.093175</ele>
        <time>2023-01-23T22:14:44.016Z</time>
      </trkpt>
      <trkpt lat="49.60164" lon="5.81587">
        <ele>281.110764</ele>
        <time>2023-01-23T22:14:45.363Z</time>
      </trkpt>
      <trkpt lat="49.60171" lon="5.81588">
        <ele>281.129283</ele>
        <time>2023-01-23T22:14:46.835Z</time>
      </trkpt>
      <trkpt lat="49.60182" lon="5.81597">
        <ele>281.163754</ele>
        <time>2023-01-23T22:14:49.786Z</time>
      </trkpt>
      <trkpt lat="49.60199" lon="5.81601">
        <ele>281.213081</ele>
        <time>2023-01-23T22:14:53.538Z</time>
      </trkpt>
      <trkpt lat="49.60215" lon="5.81618">
        <ele>281.265492</ele>
        <time>2023-01-23T22:14:57.919Z</time>
      </trkpt>
      <trkpt lat="49.60222" lon="5.81623">
        <ele>281.28922</ele>
        <time>2023-01-23T22:14:59.694Z</time>
      </trkpt>
      <trkpt lat="49.60242" lon="5.8162">
        <ele>281.342623</ele>
        <time>2023-01-23T22:15:03.941Z</time>
      </trkpt>
      <trkpt lat="49.60251" lon="5.81623">
        <ele>281.377234</ele>
        <time>2023-01-23T22:15:06.344Z</time>
      </trkpt>
      <trkpt lat="49.6026" lon="5.81632">
        <ele>281.413532</ele>
        <time>2023-01-23T22:15:08.525Z</time>
      </trkpt>
      <trkpt lat="49.60278" lon="5.81675">
        <ele>281.530537</ele>
        <time>2023-01-23T22:15:16.200Z</time>
      </trkpt>
      <trkpt lat="49.6029" lon="5.81687">
        <ele>281.581176</ele>
        <time>2023-01-23T22:15:19.525Z</time>
      </trkpt>
      <trkpt lat="49.60301" lon="5.81692">
        <ele>281.620541</ele>
        <time>2023-01-23T22:15:22.433Z</time>
      </trkpt>
      <trkpt lat="49.60322" lon="5.81693">
        <ele>281.69416</ele>
        <time>2023-01-23T22:15:27.553Z</time>
      </trkpt>
      <trkpt lat="49.60331" lon="5.817">
        <ele>281.730506</ele>
        <time>2023-01-23T22:15:30.074Z</time>
      </trkpt>
      <trkpt lat="49.60336" lon="5.81712">
        <ele>281.76234</ele>
        <time>2023-01-23T22:15:32.321Z</time>
      </trkpt>
      <trkpt lat="49.60338" lon="5.81738">
        <ele>281.822146</ele>
        <time>2023-01-23T22:15:36.510Z</time>
      </trkpt>
      <trkpt lat="49.60342" lon="5.81744">
        <ele>281.842713</ele>
        <time>2023-01-23T22:15:37.926Z</time>
      </trkpt>
      <trkpt lat="49.60374" lon="5.81742">
        <ele>281.955168</ele>
        <time>2023-01-23T22:15:45.860Z</time>
      </trkpt>
      <trkpt lat="49.60386" lon="5.8175">
        <ele>282.001114</ele>
        <time>2023-01-23T22:15:48.970Z</time>
      </trkpt>
      <trkpt lat="49.60417" lon="5.81781">
        <ele>282.149456</ele>
        <time>2023-01-23T22:15:58.519Z</time>
      </trkpt>
      <trkpt lat="49.60422" lon="5.81782">
        <ele>282.169198</ele>
        <time>2023-01-23T22:15:59.799Z</time>
      </trkpt>
      <trkpt lat="49.60428" lon="5.81779">
        <ele>282.191428</ele>
        <time>2023-01-23T22:16:01.295Z</time>
      </trkpt>
      <trkpt lat="49.60438" lon="5.81764">
        <ele>282.248903</ele>
        <time>2023-01-23T22:16:04.897Z</time>
      </trkpt>
      <trkpt lat="49.6045" lon="5.81757">
        <ele>282.300005</ele>
        <time>2023-01-23T22:16:08.127Z</time>
      </trkpt>
      <trkpt lat="49.60489" lon="5.81749">
        <ele>282.452153</ele>
        <time>2023-01-23T22:16:17.644Z</time>
      </trkpt>
      <trkpt lat="49.60498" lon="5.81751">
        <ele>282.489723</ele>
        <time>2023-01-23T22:16:20.015Z</time>
      </trkpt>
      <trkpt lat="49.60506" lon="5.81758">
        <ele>282.526309</ele>
        <time>2023-01-23T22:16:22.237Z</time>
      </trkpt>
      <trkpt lat="49.60515" lon="5.81779">
        <ele>282.590863</ele>
        <time>2023-01-23T22:16:26.135Z</time>
      </trkpt>
      <trkpt lat="49.60522" lon="5.81784">
        <ele>282.620099</ele>
        <time>2023-01-23T22:16:27.934Z</time>
      </trkpt>
      <trkpt lat="49.60527" lon="5.81783">
        <ele>282.640958</ele>
        <time>2023-01-23T22:16:29.158Z</time>
      </trkpt>
      <trkpt lat="49.6053" lon="5.81777">
        <ele>282.661023</ele>
        <time>2023-01-23T22:16:30.349Z</time>
      </trkpt>
      <trkpt lat="49.6053" lon="5.81746">
        <ele>282.655479</ele>
        <time>2023-01-23T22:16:34.818Z</time>
      </trkpt>
      <trkpt lat="49.60533" lon="5.81729">
        <ele>282.627074</ele>
        <time>2023-01-23T22:16:37.209Z</time>
      </trkpt>
      <trkpt lat="49.60541" lon="5.81718">
        <ele>282.59951</ele>
        <time>2023-01-23T22:16:39.381Z</time>
      </trkpt>
      <trkpt lat="49.60564" lon="5.81712">
        <ele>282.541812</ele>
        <time>2023-01-23T22:16:44.605Z</time>
      </trkpt>
      <trkpt lat="49.60577" lon="5.81713">
        <ele>282.508322</ele>
        <time>2023-01-23T22:16:47.216Z</time>
      </trkpt>
      <trkpt lat="49.60584" lon="5.8171">
        <ele>282.489371</ele>
        <time>2023-01-23T22:16:48.958Z</time>
      </trkpt>
      <trkpt lat="49.60587" lon="5.81703">
        <ele>282.47534</ele>
        <time>2023-01-23T22:16:50.289Z</time>
      </trkpt>
      <trkpt lat="49.60587" lon="5.81692">
        <ele>282.458113</ele>
        <time>2023-01-23T22:16:51.849Z</time>
      </trkpt>
      <trkpt lat="49.60583" lon="5.81685">
        <ele>282.441965</ele>
        <time>2023-01-23T22:16:53.126Z</time>
      </trkpt>
      <trkpt lat="49.60568" lon="5.81675">
        <ele>282.400486</ele>
        <time>2023-01-23T22:16:56.539Z</time>
      </trkpt>
      <trkpt lat="49.60564" lon="5.81669">
        <ele>282.385849</ele>
        <time>2023-01-23T22:16:57.902Z</time>
      </trkpt>
      <trkpt lat="49.60561" lon="5.81666">
        <ele>282.377035</ele>
        <time>2023-01-23T22:16:58.743Z</time>
      </trkpt>
      <trkpt lat="49.60557" lon="5.8165">
        <ele>282.349194</ele>
        <time>2023-01-23T22:17:01.015Z</time>
      </trkpt>
      <trkpt lat="49.60557" lon="5.81634">
        <ele>282.322963</ele>
        <time>2023-01-23T22:17:03.072Z</time>
      </trkpt>
      <trkpt lat="49.60561" lon="5.81621">
        <ele>282.300137</ele>
        <time>2023-01-23T22:17:05.171Z</time>
      </trkpt>
      <trkpt lat="49.60568" lon="5.8161">
        <ele>282.274045</ele>
        <time>2023-01-23T22:17:07.475Z</time>
      </trkpt>
      <trkpt lat="49.60584" lon="5.8161">
        <ele>282.233824</ele>
        <time>2023-01-23T22:17:10.564Z</time>
      </trkpt>
      <trkpt lat="49.60587" lon="5.81612">
        <ele>282.22758</ele>
        <time>2023-01-23T22:17:11.287Z</time>
      </trkpt>
      <trkpt lat="49.60594" lon="5.81622">
        <ele>282.208327</ele>
        <time>2023-01-23T22:17:13.555Z</time>
      </trkpt>
      <trkpt lat="49.60597" lon="5.81625">
        <ele>282.201853</ele>
        <time>2023-01-23T22:17:14.320Z</time>
      </trkpt>
      <trkpt lat="49.60655" lon="5.81665">
        <ele>282.074188</ele>
        <time>2023-01-23T22:17:27.817Z</time>
      </trkpt>
      <trkpt lat="49.60659" lon="5.81665">
        <ele>282.06665</ele>
        <time>2023-01-23T22:17:28.739Z</time>
      </trkpt>
      <trkpt lat="49.60664" lon="5.81662">
        <ele>282.057405</ele>
        <time>2023-01-23T22:17:29.904Z</time>
      </trkpt>
      <trkpt lat="49.60666" lon="5.81653">
        <ele>282.044434</ele>
        <time>2023-01-23T22:17:31.276Z</time>
      </trkpt>
      <trkpt lat="49.60667" lon="5.8162">
        <ele>282.002033</ele>
        <time>2023-01-23T22:17:35.875Z</time>
      </trkpt>
      <trkpt lat="49.60671" lon="5.81603">
        <ele>281.978746</ele>
        <time>2023-01-23T22:17:38.843Z</time>
      </trkpt>
      <trkpt lat="49.60678" lon="5.81593">
        <ele>281.960082</ele>
        <time>2023-01-23T22:17:40.802Z</time>
      </trkpt>
      <trkpt lat="49.60713" lon="5.81563">
        <ele>281.880926</ele>
        <time>2023-01-23T22:17:50.198Z</time>
      </trkpt>
      <trkpt lat="49.60725" lon="5.81557">
        <ele>281.881452</ele>
        <time>2023-01-23T22:17:52.999Z</time>
      </trkpt>
      <trkpt lat="49.6076" lon="5.81558">
        <ele>281.8956</ele>
        <time>2023-01-23T22:18:00.553Z</time>
      </trkpt>
      <trkpt lat="49.60822" lon="5.81535">
        <ele>281.92154</ele>
        <time>2023-01-23T22:18:15.027Z</time>
      </trkpt>
      <trkpt lat="49.6084" lon="5.81529">
        <ele>281.929162</ele>
        <time>2023-01-23T22:18:19.066Z</time>
      </trkpt>
      <trkpt lat="49.60848" lon="5.81518">
        <ele>281.933614</ele>
        <time>2023-01-23T22:18:21.818Z</time>
      </trkpt>
      <trkpt lat="49.60847" lon="5.81454">
        <ele>281.950217</ele>
        <time>2023-01-23T22:18:31.168Z</time>
      </trkpt>
      <trkpt lat="49.60849" lon="5.81452">
        <ele>281.948545</ele>
        <time>2023-01-23T22:18:31.602Z</time>
      </trkpt>
      <trkpt lat="49.60865" lon="5.81449">
        <ele>281.938689</ele>
        <time>2023-01-23T22:18:35.324Z</time>
      </trkpt>
      <trkpt lat="49.60879" lon="5.81447">
        <ele>281.930142</ele>
        <time>2023-01-23T22:18:38.777Z</time>
      </trkpt>
      <trkpt lat="49.61028" lon="5.8142">
        <ele>281.842232</ele>
        <time>2023-01-23T22:19:22.248Z</time>
      </trkpt>
      <trkpt lat="49.61071" lon="5.81412">
        <ele>281.885056</ele>
        <time>2023-01-23T22:19:35.119Z</time>
      </trkpt>
      <trkpt lat="49.6115" lon="5.81399">
        <ele>281.962954</ele>
        <time>2023-01-23T22:19:58.712Z</time>
      </trkpt>
      <trkpt lat="49.61196" lon="5.81379">
        <ele>282.010957</ele>
        <time>2023-01-23T22:20:13.255Z</time>
      </trkpt>
      <trkpt lat="49.61249" lon="5.81386">
        <ele>282.145417</ele>
        <time>2023-01-23T22:20:29.162Z</time>
      </trkpt>
      <trkpt lat="49.61257" lon="5.81392">
        <ele>282.171023</ele>
        <time>2023-01-23T22:20:32.043Z</time>
      </trkpt>
      <trkpt lat="49.61265" lon="5.81403">
        <ele>282.20062</ele>
        <time>2023-01-23T22:20:35.287Z</time>
      </trkpt>
      <trkpt lat="49.61276" lon="5.81433">
        <ele>282.260992</ele>
        <time>2023-01-23T22:20:41.999Z</time>
      </trkpt>
      <trkpt lat="49.6128" lon="5.81439">
        <ele>282.275503</ele>
        <time>2023-01-23T22:20:43.645Z</time>
      </trkpt>
      <trkpt lat="49.61285" lon="5.8144">
        <ele>282.290666</ele>
        <time>2023-01-23T22:20:45.308Z</time>
      </trkpt>
      <trkpt lat="49.61545" lon="5.81398">
        <ele>283.046967</ele>
        <time>2023-01-23T22:22:05.605Z</time>
      </trkpt>
      <trkpt lat="49.61536" lon="5.81423">
        <ele>283.174416</ele>
        <time>2023-01-23T22:22:10.170Z</time>
      </trkpt>
      <trkpt lat="49.61516" lon="5.81454">
        <ele>283.374139</ele>
        <time>2023-01-23T22:22:17.226Z</time>
      </trkpt>
      <trkpt lat="49.61469" lon="5.81508">
        <ele>283.770521</ele>
        <time>2023-01-23T22:22:31.802Z</time>
      </trkpt>
      <trkpt lat="49.61453" lon="5.81518">
        <ele>283.89457</ele>
        <time>2023-01-23T22:22:36.533Z</time>
      </trkpt>
      <trkpt lat="49.61423" lon="5.8152">
        <ele>284.098339</ele>
        <time>2023-01-23T22:22:44.320Z</time>
      </trkpt>
      <trkpt lat="49.61409" lon="5.81525">
        <ele>284.196846</ele>
        <time>2023-01-23T22:22:48.229Z</time>
      </trkpt>
      <trkpt lat="49.61393" lon="5.81536">
        <ele>284.405331</ele>
        <time>2023-01-23T22:22:52.821Z</time>
      </trkpt>
      <trkpt lat="49.61351" lon="5.8158">
        <ele>285.398084</ele>
        <time>2023-01-23T22:23:07.519Z</time>
      </trkpt>
      <trkpt lat="49.61253" lon="5.81679">
        <ele>287.682662</ele>
        <time>2023-01-23T22:23:46.947Z</time>
      </trkpt>
      <trkpt lat="49.61269" lon="5.81737">
        <ele>288.886217</ele>
        <time>2023-01-23T22:24:01.958Z</time>
      </trkpt>
      <trkpt lat="49.61274" lon="5.81776">
        <ele>289.691812</ele>
        <time>2023-01-23T22:24:11.001Z</time>
      </trkpt>
      <trkpt lat="49.61275" lon="5.81813">
        <ele>290.449477</ele>
        <time>2023-01-23T22:24:19.766Z</time>
      </trkpt>
      <trkpt lat="49.61268" lon="5.81888">
        <ele>291.965989</ele>
        <time>2023-01-23T22:24:39.035Z</time>
      </trkpt>
      <trkpt lat="49.61261" lon="5.81894">
        <ele>292.213655</ele>
        <time>2023-01-23T22:24:42.467Z</time>
      </trkpt>
      <trkpt lat="49.6124" lon="5.819">
        <ele>292.864847</ele>
        <time>2023-01-23T22:24:50.780Z</time>
      </trkpt>
      <trkpt lat="49.61179" lon="5.81907">
        <ele>295.288683</ele>
        <time>2023-01-23T22:25:14.946Z</time>
      </trkpt>
      <trkpt lat="49.61179" lon="5.81971">
        <ele>297.065133</ele>
        <time>2023-01-23T22:25:32.143Z</time>
      </trkpt>
      <trkpt lat="49.61185" lon="5.82143">
        <ele>302.087727</ele>
        <time>2023-01-23T22:26:23.208Z</time>
      </trkpt>
      <trkpt lat="49.61208" lon="5.82233">
        <ele>305.805818</ele>
        <time>2023-01-23T22:26:53.985Z</time>
      </trkpt>
      <trkpt lat="49.61212" lon="5.8225">
        <ele>306.494537</ele>
        <time>2023-01-23T22:27:00.779Z</time>
      </trkpt>
      <trkpt lat="49.61214" lon="5.82257">
        <ele>306.801833</ele>
        <time>2023-01-23T22:27:03.288Z</time>
      </trkpt>
      <trkpt lat="49.61258" lon="5.82375">
        <ele>312.212454</ele>
        <time>2023-01-23T22:27:50.739Z</time>
      </trkpt>
      <trkpt lat="49.61267" lon="5.824">
        <ele>313.908268</ele>
        <time>2023-01-23T22:28:01.699Z</time>
      </trkpt>
      <trkpt lat="49.61288" lon="5.8246">
        <ele>317.930866</ele>
        <time>2023-01-23T22:28:28.640Z</time>
      </trkpt>
      <trkpt lat="49.61294" lon="5.825">
        <ele>320.332293</ele>
        <time>2023-01-23T22:28:44.438Z</time>
      </trkpt>
      <trkpt lat="49.613" lon="5.82618">
        <ele>327.343003</ele>
        <time>2023-01-23T22:29:39.355Z</time>
      </trkpt>
      <trkpt lat="49.61303" lon="5.82659">
        <ele>330.907356</ele>
        <time>2023-01-23T22:30:02.770Z</time>
      </trkpt>
      <trkpt lat="49.61303" lon="5.82749">
        <ele>339.766122</ele>
        <time>2023-01-23T22:30:59.771Z</time>
      </trkpt>
      <trkpt lat="49.61315" lon="5.82812">
        <ele>346.252192</ele>
        <time>2023-01-23T22:31:45.948Z</time>
      </trkpt>
      <trkpt lat="49.61319" lon="5.82841">
        <ele>349.127017</ele>
        <time>2023-01-23T22:32:07.351Z</time>
      </trkpt>
      <trkpt lat="49.6132" lon="5.82898">
        <ele>354.757969</ele>
        <time>2023-01-23T22:32:47.222Z</time>
      </trkpt>
      <trkpt lat="49.61321" lon="5.83002">
        <ele>361.705465</ele>
        <time>2023-01-23T22:33:51.097Z</time>
      </trkpt>
      <trkpt lat="49.61337" lon="5.83113">
        <ele>369.053606</ele>
        <time>2023-01-23T22:34:43.645Z</time>
      </trkpt>
      <trkpt lat="49.61342" lon="5.83169">
        <ele>372.706687</ele>
        <time>2023-01-23T22:35:01.641Z</time>
      </trkpt>
      <trkpt lat="49.61341" lon="5.8321">
        <ele>373.370228</ele>
        <time>2023-01-23T22:35:10.802Z</time>
      </trkpt>
      <trkpt lat="49.61332" lon="5.83268">
        <ele>373.400099</ele>
        <time>2023-01-23T22:35:19.519Z</time>
      </trkpt>
      <trkpt lat="49.61314" lon="5.83322">
        <ele>373.430836</ele>
        <time>2023-01-23T22:35:27.259Z</time>
      </trkpt>
      <trkpt lat="49.61291" lon="5.83367">
        <ele>373.459609</ele>
        <time>2023-01-23T22:35:34.022Z</time>
      </trkpt>
      <trkpt lat="49.61263" lon="5.83402">
        <ele>373.487841</ele>
        <time>2023-01-23T22:35:40.876Z</time>
      </trkpt>
      <trkpt lat="49.61226" lon="5.8344">
        <ele>373.731116</ele>
        <time>2023-01-23T22:35:50.010Z</time>
      </trkpt>
      <trkpt lat="49.61218" lon="5.8345">
        <ele>373.79704</ele>
        <time>2023-01-23T22:35:52.184Z</time>
      </trkpt>
      <trkpt lat="49.61209" lon="5.83461">
        <ele>373.871301</ele>
        <time>2023-01-23T22:35:54.755Z</time>
      </trkpt>
      <trkpt lat="49.61199" lon="5.83479">
        <ele>373.970808</ele>
        <time>2023-01-23T22:35:58.331Z</time>
      </trkpt>
      <trkpt lat="49.6119" lon="5.83543">
        <ele>374.251775</ele>
        <time>2023-01-23T22:36:09.686Z</time>
      </trkpt>
      <trkpt lat="49.61169" lon="5.83641">
        <ele>374.696121</ele>
        <time>2023-01-23T22:36:31.290Z</time>
      </trkpt>
      <trkpt lat="49.61136" lon="5.83793">
        <ele>375.793417</ele>
        <time>2023-01-23T22:37:04.018Z</time>
      </trkpt>
      <trkpt lat="49.61115" lon="5.83885">
        <ele>376.457398</ele>
        <time>2023-01-23T22:37:19.884Z</time>
      </trkpt>
      <trkpt lat="49.61109" lon="5.83905">
        <ele>376.491754</ele>
        <time>2023-01-23T22:37:22.518Z</time>
      </trkpt>
      <trkpt lat="49.61102" lon="5.83918">
        <ele>376.240568</ele>
        <time>2023-01-23T22:37:25.661Z</time>
      </trkpt>
      <trkpt lat="49.61077" lon="5.83943">
        <ele>375.567703</ele>
        <time>2023-01-23T22:37:31.341Z</time>
      </trkpt>
      <trkpt lat="49.61064" lon="5.83967">
        <ele>375.122855</ele>
        <time>2023-01-23T22:37:35.485Z</time>
      </trkpt>
      <trkpt lat="49.61052" lon="5.8402">
        <ele>374.286573</ele>
        <time>2023-01-23T22:37:42.150Z</time>
      </trkpt>
      <trkpt lat="49.61061" lon="5.84021">
        <ele>374.079418</ele>
        <time>2023-01-23T22:37:44.677Z</time>
      </trkpt>
      <trkpt lat="49.61092" lon="5.84038">
        <ele>373.335859</ele>
        <time>2023-01-23T22:37:54.727Z</time>
      </trkpt>
      <trkpt lat="49.61108" lon="5.84041">
        <ele>372.972396</ele>
        <time>2023-01-23T22:37:59.557Z</time>
      </trkpt>
      <trkpt lat="49.61156" lon="5.84044">
        <ele>371.711751</ele>
        <time>2023-01-23T22:38:14.061Z</time>
      </trkpt>
      <trkpt lat="49.61259" lon="5.84034">
        <ele>368.689648</ele>
        <time>2023-01-23T22:38:45.996Z</time>
      </trkpt>
      <trkpt lat="49.61279" lon="5.84036">
        <ele>368.112439</ele>
        <time>2023-01-23T22:38:52.305Z</time>
      </trkpt>
      <trkpt lat="49.61283" lon="5.84038">
        <ele>367.987804</ele>
        <time>2023-01-23T22:38:53.515Z</time>
      </trkpt>
      <trkpt lat="49.61334" lon="5.84054">
        <ele>367.011102</ele>
        <time>2023-01-23T22:39:11.084Z</time>
      </trkpt>
      <trkpt lat="49.61357" lon="5.84059">
        <ele>366.792715</ele>
        <time>2023-01-23T22:39:18.426Z</time>
      </trkpt>
      <trkpt lat="49.61377" lon="5.84057">
        <ele>366.593859</ele>
        <time>2023-01-23T22:39:25.924Z</time>
      </trkpt>
      <trkpt lat="49.614" lon="5.84052">
        <ele>366.373865</ele>
        <time>2023-01-23T22:39:33.782Z</time>
      </trkpt>
      <trkpt lat="49.61429" lon="5.84034">
        <ele>366.083825</ele>
        <time>2023-01-23T22:39:44.140Z</time>
      </trkpt>
      <trkpt lat="49.61443" lon="5.83998">
        <ele>365.825857</ele>
        <time>2023-01-23T22:39:53.843Z</time>
      </trkpt>
      <trkpt lat="49.61453" lon="5.83968">
        <ele>365.614888</ele>
        <time>2023-01-23T22:40:03.243Z</time>
      </trkpt>
      <trkpt lat="49.61459" lon="5.83958">
        <ele>365.591618</ele>
        <time>2023-01-23T22:40:06.105Z</time>
      </trkpt>
      <trkpt lat="49.6153" lon="5.8388">
        <ele>366.595419</ele>
        <time>2023-01-23T22:40:41.676Z</time>
      </trkpt>
      <trkpt lat="49.61553" lon="5.83863">
        <ele>366.886823</ele>
        <time>2023-01-23T22:40:52.497Z</time>
      </trkpt>
      <trkpt lat="49.61573" lon="5.83856">
        <ele>367.129698</ele>
        <time>2023-01-23T22:41:02.674Z</time>
      </trkpt>
      <trkpt lat="49.61692" lon="5.83838">
        <ele>369.062954</ele>
        <time>2023-01-23T22:41:58.472Z</time>
      </trkpt>
      <trkpt lat="49.61707" lon="5.83833">
        <ele>369.342837</ele>
        <time>2023-01-23T22:42:05.567Z</time>
      </trkpt>
      <trkpt lat="49.6173" lon="5.83817">
        <ele>369.8176</ele>
        <time>2023-01-23T22:42:18.310Z</time>
      </trkpt>
      <trkpt lat="49.61765" lon="5.83782">
        <ele>370.602673</ele>
        <time>2023-01-23T22:42:38.602Z</time>
      </trkpt>
      <trkpt lat="49.61825" lon="5.83703">
        <ele>370.512714</ele>
        <time>2023-01-23T22:43:11.408Z</time>
      </trkpt>
      <trkpt lat="49.61859" lon="5.83672">
        <ele>370.15137</ele>
        <time>2023-01-23T22:43:26.235Z</time>
      </trkpt>
      <trkpt lat="49.61892" lon="5.83653">
        <ele>369.837057</ele>
        <time>2023-01-23T22:43:37.896Z</time>
      </trkpt>
      <trkpt lat="49.61894" lon="5.83695">
        <ele>369.58988</ele>
        <time>2023-01-23T22:43:46.439Z</time>
      </trkpt>
      <trkpt lat="49.61908" lon="5.83771">
        <ele>368.091107</ele>
        <time>2023-01-23T22:44:01.908Z</time>
      </trkpt>
      <trkpt lat="49.61925" lon="5.83857">
        <ele>365.520561</ele>
        <time>2023-01-23T22:44:18.931Z</time>
      </trkpt>
      <trkpt lat="49.61952" lon="5.83945">
        <ele>362.745306</ele>
        <time>2023-01-23T22:44:36.924Z</time>
      </trkpt>
      <trkpt lat="49.61977" lon="5.84107">
        <ele>358.516293</ele>
        <time>2023-01-23T22:45:08.822Z</time>
      </trkpt>
      <trkpt lat="49.6198" lon="5.84154">
        <ele>357.385552</ele>
        <time>2023-01-23T22:45:18.068Z</time>
      </trkpt>
      <trkpt lat="49.61987" lon="5.84206">
        <ele>356.104052</ele>
        <time>2023-01-23T22:45:28.388Z</time>
      </trkpt>
      <trkpt lat="49.61991" lon="5.84264">
        <ele>354.716952</ele>
        <time>2023-01-23T22:45:40.117Z</time>
      </trkpt>
      <trkpt lat="49.61994" lon="5.8428">
        <ele>354.549213</ele>
        <time>2023-01-23T22:45:43.432Z</time>
      </trkpt>
      <trkpt lat="49.62005" lon="5.84314">
        <ele>354.163428</ele>
        <time>2023-01-23T22:45:51.163Z</time>
      </trkpt>
      <trkpt lat="49.6201" lon="5.84344">
        <ele>353.840294</ele>
        <time>2023-01-23T22:45:57.760Z</time>
      </trkpt>
      <trkpt lat="49.62013" lon="5.84371">
        <ele>353.568053</ele>
        <time>2023-01-23T22:46:03.419Z</time>
      </trkpt>
      <trkpt lat="49.62011" lon="5.84413">
        <ele>353.128226</ele>
        <time>2023-01-23T22:46:12.674Z</time>
      </trkpt>
      <trkpt lat="49.62008" lon="5.8443">
        <ele>352.954155</ele>
        <time>2023-01-23T22:46:16.402Z</time>
      </trkpt>
      <trkpt lat="49.6201" lon="5.84443">
        <ele>352.826091</ele>
        <time>2023-01-23T22:46:19.115Z</time>
      </trkpt>
      <trkpt lat="49.6203" lon="5.84489">
        <ele>352.251682</ele>
        <time>2023-01-23T22:46:31.352Z</time>
      </trkpt>
      <trkpt lat="49.6188" lon="5.84471">
        <ele>353.476672</ele>
        <time>2023-01-23T22:47:09.537Z</time>
      </trkpt>
      <trkpt lat="49.61724" lon="5.84452">
        <ele>356.487972</ele>
        <time>2023-01-23T22:48:07.516Z</time>
      </trkpt>
      <trkpt lat="49.6173" lon="5.84482">
        <ele>356.94825</ele>
        <time>2023-01-23T22:48:17.804Z</time>
      </trkpt>
      <trkpt lat="49.61778" lon="5.84657">
        <ele>357.920341</ele>
        <time>2023-01-23T22:49:10.264Z</time>
      </trkpt>
      <trkpt lat="49.61818" lon="5.84785">
        <ele>357.579181</ele>
        <time>2023-01-23T22:49:41.744Z</time>
      </trkpt>
      <trkpt lat="49.6183" lon="5.84819">
        <ele>357.348002</ele>
        <time>2023-01-23T22:49:50.160Z</time>
      </trkpt>
      <trkpt lat="49.61821" lon="5.84821">
        <ele>357.105534</ele>
        <time>2023-01-23T22:49:53.124Z</time>
      </trkpt>
      <trkpt lat="49.61798" lon="5.8481">
        <ele>356.490199</ele>
        <time>2023-01-23T22:50:01.015Z</time>
      </trkpt>
      <trkpt lat="49.61753" lon="5.84803">
        <ele>355.304968</ele>
        <time>2023-01-23T22:50:15.240Z</time>
      </trkpt>
      <trkpt lat="49.61743" lon="5.84804">
        <ele>355.035534</ele>
        <time>2023-01-23T22:50:18.419Z</time>
      </trkpt>
      <trkpt lat="49.61702" lon="5.84809">
        <ele>353.960393</ele>
        <time>2023-01-23T22:50:31.024Z</time>
      </trkpt>
      <trkpt lat="49.61642" lon="5.84807">
        <ele>352.555726</ele>
        <time>2023-01-23T22:50:49.295Z</time>
      </trkpt>
      <trkpt lat="49.61621" lon="5.84815">
        <ele>352.182592</ele>
        <time>2023-01-23T22:50:56.080Z</time>
      </trkpt>
      <trkpt lat="49.61592" lon="5.84868">
        <ele>351.407824</ele>
        <time>2023-01-23T22:51:10.672Z</time>
      </trkpt>
      <trkpt lat="49.61563" lon="5.84938">
        <ele>350.487769</ele>
        <time>2023-01-23T22:51:28.223Z</time>
      </trkpt>
      <trkpt lat="49.61542" lon="5.84971">
        <ele>349.964695</ele>
        <time>2023-01-23T22:51:38.777Z</time>
      </trkpt>
      <trkpt lat="49.61508" lon="5.85008">
        <ele>349.840894</ele>
        <time>2023-01-23T22:51:54.261Z</time>
      </trkpt>
      <trkpt lat="49.61465" lon="5.85036">
        <ele>350.035507</ele>
        <time>2023-01-23T22:52:12.819Z</time>
      </trkpt>
      <trkpt lat="49.61455" lon="5.8504">
        <ele>350.076408</ele>
        <time>2023-01-23T22:52:16.905Z</time>
      </trkpt>
      <trkpt lat="49.61437" lon="5.85038">
        <ele>350.153007</ele>
        <time>2023-01-23T22:52:24.245Z</time>
      </trkpt>
      <trkpt lat="49.61414" lon="5.8503">
        <ele>350.248531</ele>
        <time>2023-01-23T22:52:33.745Z</time>
      </trkpt>
      <trkpt lat="49.6139" lon="5.85017">
        <ele>350.354966</ele>
        <time>2023-01-23T22:52:40.714Z</time>
      </trkpt>
      <trkpt lat="49.6137" lon="5.85007">
        <ele>350.442647</ele>
        <time>2023-01-23T22:52:46.755Z</time>
      </trkpt>
      <trkpt lat="49.61341" lon="5.84993">
        <ele>350.461234</ele>
        <time>2023-01-23T22:52:54.881Z</time>
      </trkpt>
      <trkpt lat="49.6133" lon="5.84995">
        <ele>350.455544</ele>
        <time>2023-01-23T22:52:57.459Z</time>
      </trkpt>
      <trkpt lat="49.61338" lon="5.85029">
        <ele>350.443831</ele>
        <time>2023-01-23T22:53:03.640Z</time>
      </trkpt>
      <trkpt lat="49.6134" lon="5.85058">
        <ele>350.434304</ele>
        <time>2023-01-23T22:53:08.005Z</time>
      </trkpt>
      <trkpt lat="49.61347" lon="5.85193">
        <ele>350.389841</ele>
        <time>2023-01-23T22:53:27.420Z</time>
      </trkpt>
      <trkpt lat="49.6135" lon="5.85419">
        <ele>349.36937</ele>
        <time>2023-01-23T22:53:58.843Z</time>
      </trkpt>
      <trkpt lat="49.61345" lon="5.85465">
        <ele>349.134905</ele>
        <time>2023-01-23T22:54:05.007Z</time>
      </trkpt>
      <trkpt lat="49.61353" lon="5.85486">
        <ele>349.011052</ele>
        <time>2023-01-23T22:54:08.325Z</time>
      </trkpt>
      <trkpt lat="49.61357" lon="5.85705">
        <ele>347.405781</ele>
        <time>2023-01-23T22:54:37.602Z</time>
      </trkpt>
      <trkpt lat="49.61359" lon="5.85749">
        <ele>347.083832</ele>
        <time>2023-01-23T22:54:47.217Z</time>
      </trkpt>
      <trkpt lat="49.61364" lon="5.85797">
        <ele>346.713505</ele>
        <time>2023-01-23T22:54:58.006Z</time>
      </trkpt>
      <trkpt lat="49.6138" lon="5.8589">
        <ele>345.982732</ele>
        <time>2023-01-23T22:55:19.055Z</time>
      </trkpt>
      <trkpt lat="49.61433" lon="5.86103">
        <ele>344.171128</ele>
        <time>2023-01-23T22:56:09.772Z</time>
      </trkpt>
      <trkpt lat="49.61472" lon="5.86239">
        <ele>342.907944</ele>
        <time>2023-01-23T22:56:42.230Z</time>
      </trkpt>
      <trkpt lat="49.61487" lon="5.8628">
        <ele>342.504244</ele>
        <time>2023-01-23T22:56:52.582Z</time>
      </trkpt>
      <trkpt lat="49.61626" lon="5.86567">
        <ele>338.131407</ele>
        <time>2023-01-23T22:58:09.264Z</time>
      </trkpt>
      <trkpt lat="49.61648" lon="5.86608">
        <ele>337.231479</ele>
        <time>2023-01-23T22:58:20.333Z</time>
      </trkpt>
      <trkpt lat="49.61657" lon="5.86625">
        <ele>336.85092</ele>
        <time>2023-01-23T22:58:24.942Z</time>
      </trkpt>
      <trkpt lat="49.61681" lon="5.86683">
        <ele>335.69441</ele>
        <time>2023-01-23T22:58:38.649Z</time>
      </trkpt>
      <trkpt lat="49.61709" lon="5.86788">
        <ele>333.307852</ele>
        <time>2023-01-23T22:59:01.008Z</time>
      </trkpt>
      <trkpt lat="49.61736" lon="5.86877">
        <ele>330.85452</ele>
        <time>2023-01-23T22:59:20.098Z</time>
      </trkpt>
      <trkpt lat="49.61742" lon="5.86945">
        <ele>329.136298</ele>
        <time>2023-01-23T22:59:33.287Z</time>
      </trkpt>
      <trkpt lat="49.61742" lon="5.86998">
        <ele>327.792362</ele>
        <time>2023-01-23T22:59:43.515Z</time>
      </trkpt>
      <trkpt lat="49.61745" lon="5.87022">
        <ele>327.293612</ele>
        <time>2023-01-23T22:59:48.128Z</time>
      </trkpt>
      <trkpt lat="49.61754" lon="5.87054">
        <ele>326.580062</ele>
        <time>2023-01-23T22:59:54.811Z</time>
      </trkpt>
      <trkpt lat="49.61775" lon="5.87118">
        <ele>325.12642</ele>
        <time>2023-01-23T23:00:08.710Z</time>
      </trkpt>
      <trkpt lat="49.61825" lon="5.87242">
        <ele>322.157635</ele>
        <time>2023-01-23T23:00:38.726Z</time>
      </trkpt>
      <trkpt lat="49.6183" lon="5.87267">
        <ele>322.073071</ele>
        <time>2023-01-23T23:00:41.810Z</time>
      </trkpt>
      <trkpt lat="49.61883" lon="5.87271">
        <ele>321.921969</ele>
        <time>2023-01-23T23:00:51.766Z</time>
      </trkpt>
      <trkpt lat="49.61896" lon="5.87267">
        <ele>321.881979</ele>
        <time>2023-01-23T23:00:54.418Z</time>
      </trkpt>
      <trkpt lat="49.61922" lon="5.87254">
        <ele>321.804434</ele>
        <time>2023-01-23T23:01:00.167Z</time>
      </trkpt>
      <trkpt lat="49.61961" lon="5.87217">
        <ele>321.671783</ele>
        <time>2023-01-23T23:01:11.921Z</time>
      </trkpt>
      <trkpt lat="49.62027" lon="5.8713">
        <ele>323.659817</ele>
        <time>2023-01-23T23:01:41.120Z</time>
      </trkpt>
      <trkpt lat="49.62052" lon="5.87107">
        <ele>324.622808</ele>
        <time>2023-01-23T23:01:52.485Z</time>
      </trkpt>
      <trkpt lat="49.62177" lon="5.87061">
        <ele>329.076138</ele>
        <time>2023-01-23T23:02:48.208Z</time>
      </trkpt>
      <trkpt lat="49.62188" lon="5.87055">
        <ele>329.519192</ele>
        <time>2023-01-23T23:02:54.293Z</time>
      </trkpt>
      <trkpt lat="49.62204" lon="5.87046">
        <ele>330.165106</ele>
        <time>2023-01-23T23:03:01.128Z</time>
      </trkpt>
      <trkpt lat="49.62218" lon="5.87032">
        <ele>330.808322</ele>
        <time>2023-01-23T23:03:08.611Z</time>
      </trkpt>
      <trkpt lat="49.62235" lon="5.87005">
        <ele>331.730048</ele>
        <time>2023-01-23T23:03:17.790Z</time>
      </trkpt>
      <trkpt lat="49.62243" lon="5.86983">
        <ele>332.346176</ele>
        <time>2023-01-23T23:03:25.101Z</time>
      </trkpt>
      <trkpt lat="49.62256" lon="5.86955">
        <ele>333.207586</ele>
        <time>2023-01-23T23:03:32.488Z</time>
      </trkpt>
      <trkpt lat="49.62279" lon="5.86928">
        <ele>334.305185</ele>
        <time>2023-01-23T23:03:43.746Z</time>
      </trkpt>
      <trkpt lat="49.62296" lon="5.86909">
        <ele>335.035419</ele>
        <time>2023-01-23T23:03:52.851Z</time>
      </trkpt>
      <trkpt lat="49.62316" lon="5.86887">
        <ele>335.819659</ele>
        <time>2023-01-23T23:04:01.779Z</time>
      </trkpt>
      <trkpt lat="49.62337" lon="5.86868">
        <ele>336.653393</ele>
        <time>2023-01-23T23:04:12.114Z</time>
      </trkpt>
      <trkpt lat="49.62358" lon="5.86855">
        <ele>337.373796</ele>
        <time>2023-01-23T23:04:21.537Z</time>
      </trkpt>
      <trkpt lat="49.62387" lon="5.86847">
        <ele>338.378017</ele>
        <time>2023-01-23T23:04:32.365Z</time>
      </trkpt>
      <trkpt lat="49.62451" lon="5.86813">
        <ele>340.560861</ele>
        <time>2023-01-23T23:04:57.209Z</time>
      </trkpt>
      <trkpt lat="49.62439" lon="5.86695">
        <ele>342.539283</ele>
        <time>2023-01-23T23:05:38.708Z</time>
      </trkpt>
      <trkpt lat="49.62424" lon="5.86621">
        <ele>343.837022</ele>
        <time>2023-01-23T23:06:06.982Z</time>
      </trkpt>
      <trkpt lat="49.62423" lon="5.86614">
        <ele>343.964657</ele>
        <time>2023-01-23T23:06:10.238Z</time>
      </trkpt>
      <trkpt lat="49.62519" lon="5.86735">
        <ele>343.614066</ele>
        <time>2023-01-23T23:06:39.873Z</time>
      </trkpt>
      <trkpt lat="49.62537" lon="5.86753">
        <ele>343.250081</ele>
        <time>2023-01-23T23:06:43.974Z</time>
      </trkpt>
      <trkpt lat="49.62555" lon="5.86759">
        <ele>342.948442</ele>
        <time>2023-01-23T23:06:47.159Z</time>
      </trkpt>
      <trkpt lat="49.6257" lon="5.86757">
        <ele>342.700285</ele>
        <time>2023-01-23T23:06:49.798Z</time>
      </trkpt>
      <trkpt lat="49.62638" lon="5.86738">
        <ele>340.59895</ele>
        <time>2023-01-23T23:07:01.912Z</time>
      </trkpt>
      <trkpt lat="49.62662" lon="5.86729">
        <ele>339.334578</ele>
        <time>2023-01-23T23:07:05.920Z</time>
      </trkpt>
      <trkpt lat="49.62684" lon="5.86715">
        <ele>338.116275</ele>
        <time>2023-01-23T23:07:09.845Z</time>
      </trkpt>
      <trkpt lat="49.62769" lon="5.86628">
        <ele>332.96004</ele>
        <time>2023-01-23T23:07:26.377Z</time>
      </trkpt>
      <trkpt lat="49.62781" lon="5.86621">
        <ele>332.447648</ele>
        <time>2023-01-23T23:07:28.448Z</time>
      </trkpt>
      <trkpt lat="49.62802" lon="5.86618">
        <ele>331.655806</ele>
        <time>2023-01-23T23:07:32.365Z</time>
      </trkpt>
      <trkpt lat="49.62828" lon="5.86619">
        <ele>330.725313</ele>
        <time>2023-01-23T23:07:36.721Z</time>
      </trkpt>
      <trkpt lat="49.63007" lon="5.86656">
        <ele>325.229443</ele>
        <time>2023-01-23T23:08:09.262Z</time>
      </trkpt>
      <trkpt lat="49.63044" lon="5.86668">
        <ele>324.566781</ele>
        <time>2023-01-23T23:08:16.727Z</time>
      </trkpt>
      <trkpt lat="49.63072" lon="5.86685">
        <ele>324.036372</ele>
        <time>2023-01-23T23:08:22.877Z</time>
      </trkpt>
      <trkpt lat="49.63102" lon="5.86713">
        <ele>323.412145</ele>
        <time>2023-01-23T23:08:30.353Z</time>
      </trkpt>
      <trkpt lat="49.63171" lon="5.86789">
        <ele>322.597381</ele>
        <time>2023-01-23T23:08:48.591Z</time>
      </trkpt>
      <trkpt lat="49.63194" lon="5.8681">
        <ele>322.393512</ele>
        <time>2023-01-23T23:08:54.345Z</time>
      </trkpt>
      <trkpt lat="49.63222" lon="5.86827">
        <ele>322.16161</ele>
        <time>2023-01-23T23:09:00.858Z</time>
      </trkpt>
      <trkpt lat="49.63312" lon="5.86859">
        <ele>321.553962</ele>
        <time>2023-01-23T23:09:20.211Z</time>
      </trkpt>
      <trkpt lat="49.63375" lon="5.86888">
        <ele>321.227366</ele>
        <time>2023-01-23T23:09:33.703Z</time>
      </trkpt>
      <trkpt lat="49.63407" lon="5.86892">
        <ele>321.067221</ele>
        <time>2023-01-23T23:09:40.662Z</time>
      </trkpt>
      <trkpt lat="49.63444" lon="5.86886">
        <ele>320.880602</ele>
        <time>2023-01-23T23:09:49.327Z</time>
      </trkpt>
      <trkpt lat="49.63454" lon="5.86881">
        <ele>320.862936</ele>
        <time>2023-01-23T23:09:51.783Z</time>
      </trkpt>
      <trkpt lat="49.63472" lon="5.86861">
        <ele>321.218166</ele>
        <time>2023-01-23T23:09:57.900Z</time>
      </trkpt>
      <trkpt lat="49.63495" lon="5.86808">
        <ele>321.887839</ele>
        <time>2023-01-23T23:10:09.868Z</time>
      </trkpt>
      <trkpt lat="49.63504" lon="5.86795">
        <ele>322.075339</ele>
        <time>2023-01-23T23:10:13.210Z</time>
      </trkpt>
      <trkpt lat="49.63513" lon="5.86786">
        <ele>322.256303</ele>
        <time>2023-01-23T23:10:17.202Z</time>
      </trkpt>
      <trkpt lat="49.63518" lon="5.86783">
        <ele>322.336363</ele>
        <time>2023-01-23T23:10:18.684Z</time>
      </trkpt>
      <trkpt lat="49.63606" lon="5.86728">
        <ele>323.910204</ele>
        <time>2023-01-23T23:10:51.762Z</time>
      </trkpt>
      <trkpt lat="49.63744" lon="5.8665">
        <ele>327.071322</ele>
        <time>2023-01-23T23:11:43.693Z</time>
      </trkpt>
      <trkpt lat="49.63776" lon="5.86636">
        <ele>327.675805</ele>
        <time>2023-01-23T23:11:53.621Z</time>
      </trkpt>
      <trkpt lat="49.63806" lon="5.86628">
        <ele>327.94395</ele>
        <time>2023-01-23T23:12:02.362Z</time>
      </trkpt>
      <trkpt lat="49.6381" lon="5.86626">
        <ele>327.98126</ele>
        <time>2023-01-23T23:12:03.587Z</time>
      </trkpt>
      <trkpt lat="49.63818" lon="5.86677">
        <ele>328.274518</ele>
        <time>2023-01-23T23:12:13.141Z</time>
      </trkpt>
      <trkpt lat="49.63876" lon="5.87213">
        <ele>331.662605</ele>
        <time>2023-01-23T23:13:51.573Z</time>
      </trkpt>
      <trkpt lat="49.63965" lon="5.8803">
        <ele>340.991768</ele>
        <time>2023-01-23T23:17:02.125Z</time>
      </trkpt>
      <trkpt lat="49.63972" lon="5.88094">
        <ele>341.042535</ele>
        <time>2023-01-23T23:17:11.478Z</time>
      </trkpt>
      <trkpt lat="49.63964" lon="5.88291">
        <ele>341.120191</ele>
        <time>2023-01-23T23:17:39.279Z</time>
      </trkpt>
      <trkpt lat="49.63956" lon="5.8835">
        <ele>341.114587</ele>
        <time>2023-01-23T23:17:48.617Z</time>
      </trkpt>
      <trkpt lat="49.63953" lon="5.8836">
        <ele>341.113557</ele>
        <time>2023-01-23T23:17:50.516Z</time>
      </trkpt>
      <trkpt lat="49.63947" lon="5.88366">
        <ele>341.112649</ele>
        <time>2023-01-23T23:17:52.534Z</time>
      </trkpt>
      <trkpt lat="49.63949" lon="5.88384">
        <ele>341.110911</ele>
        <time>2023-01-23T23:17:55.480Z</time>
      </trkpt>
      <trkpt lat="49.63922" lon="5.88642">
        <ele>342.023404</ele>
        <time>2023-01-23T23:18:43.259Z</time>
      </trkpt>
      <trkpt lat="49.6392" lon="5.88653">
        <ele>342.085867</ele>
        <time>2023-01-23T23:18:45.168Z</time>
      </trkpt>
      <trkpt lat="49.63916" lon="5.8866">
        <ele>342.136778</ele>
        <time>2023-01-23T23:18:46.670Z</time>
      </trkpt>
      <trkpt lat="49.63912" lon="5.88664">
        <ele>342.173084</ele>
        <time>2023-01-23T23:18:47.757Z</time>
      </trkpt>
      <trkpt lat="49.63872" lon="5.88698">
        <ele>342.554123</ele>
        <time>2023-01-23T23:18:58.663Z</time>
      </trkpt>
      <trkpt lat="49.63838" lon="5.88727">
        <ele>342.532377</ele>
        <time>2023-01-23T23:19:07.437Z</time>
      </trkpt>
      <trkpt lat="49.63811" lon="5.88749">
        <ele>342.476039</ele>
        <time>2023-01-23T23:19:14.052Z</time>
      </trkpt>
      <trkpt lat="49.63803" lon="5.88752">
        <ele>342.45944</ele>
        <time>2023-01-23T23:19:16.065Z</time>
      </trkpt>
      <trkpt lat="49.63793" lon="5.88751">
        <ele>342.44235</ele>
        <time>2023-01-23T23:19:18.005Z</time>
      </trkpt>
      <trkpt lat="49.63781" lon="5.88741">
        <ele>342.415443</ele>
        <time>2023-01-23T23:19:21.103Z</time>
      </trkpt>
      <trkpt lat="49.63772" lon="5.8876">
        <ele>342.386958</ele>
        <time>2023-01-23T23:19:24.508Z</time>
      </trkpt>
      <trkpt lat="49.63771" lon="5.88767">
        <ele>342.378369</ele>
        <time>2023-01-23T23:19:25.512Z</time>
      </trkpt>
      <trkpt lat="49.6377" lon="5.88775">
        <ele>342.368672</ele>
        <time>2023-01-23T23:19:26.664Z</time>
      </trkpt>
      <trkpt lat="49.63774" lon="5.88776">
        <ele>342.359694</ele>
        <time>2023-01-23T23:19:27.671Z</time>
      </trkpt>
      <trkpt lat="49.63802" lon="5.88782">
        <ele>342.306937</ele>
        <time>2023-01-23T23:19:33.689Z</time>
      </trkpt>
      <trkpt lat="49.63828" lon="5.88786">
        <ele>342.258697</ele>
        <time>2023-01-23T23:19:39.124Z</time>
      </trkpt>
      <trkpt lat="49.63886" lon="5.88788">
        <ele>341.693157</ele>
        <time>2023-01-23T23:19:51.283Z</time>
      </trkpt>
      <trkpt lat="49.63945" lon="5.88789">
        <ele>341.127845</ele>
        <time>2023-01-23T23:20:02.999Z</time>
      </trkpt>
      <trkpt lat="49.63966" lon="5.8879">
        <ele>340.920309</ele>
        <time>2023-01-23T23:20:07.189Z</time>
      </trkpt>
      <trkpt lat="49.63988" lon="5.8879">
        <ele>340.702155</ele>
        <time>2023-01-23T23:20:11.520Z</time>
      </trkpt>
      <trkpt lat="49.64052" lon="5.88794">
        <ele>339.689406</ele>
        <time>2023-01-23T23:20:23.397Z</time>
      </trkpt>
      <trkpt lat="49.64069" lon="5.88796">
        <ele>339.355841</ele>
        <time>2023-01-23T23:20:26.644Z</time>
      </trkpt>
      <trkpt lat="49.6411" lon="5.88803">
        <ele>338.593616</ele>
        <time>2023-01-23T23:20:33.915Z</time>
      </trkpt>
      <trkpt lat="49.64145" lon="5.88813">
        <ele>337.912638</ele>
        <time>2023-01-23T23:20:40.407Z</time>
      </trkpt>
      <trkpt lat="49.64163" lon="5.88821">
        <ele>337.569955</ele>
        <time>2023-01-23T23:20:43.761Z</time>
      </trkpt>
      <trkpt lat="49.64173" lon="5.88825">
        <ele>337.37063</ele>
        <time>2023-01-23T23:20:45.787Z</time>
      </trkpt>
      <trkpt lat="49.64234" lon="5.88852">
        <ele>336.705588</ele>
        <time>2023-01-23T23:20:57.946Z</time>
      </trkpt>
      <trkpt lat="49.64262" lon="5.88863">
        <ele>336.460299</ele>
        <time>2023-01-23T23:21:03.722Z</time>
      </trkpt>
      <trkpt lat="49.64262" lon="5.88839">
        <ele>336.330245</ele>
        <time>2023-01-23T23:21:07.285Z</time>
      </trkpt>
      <trkpt lat="49.6426" lon="5.88829">
        <ele>336.270721</ele>
        <time>2023-01-23T23:21:08.694Z</time>
      </trkpt>
      <trkpt lat="49.64252" lon="5.88821">
        <ele>336.191102</ele>
        <time>2023-01-23T23:21:10.645Z</time>
      </trkpt>
      <trkpt lat="49.64167" lon="5.88795">
        <ele>335.513162</ele>
        <time>2023-01-23T23:21:29.204Z</time>
      </trkpt>
      <trkpt lat="49.64141" lon="5.88775">
        <ele>335.35611</ele>
        <time>2023-01-23T23:21:35.083Z</time>
      </trkpt>
      <trkpt lat="49.64129" lon="5.88759">
        <ele>335.26993</ele>
        <time>2023-01-23T23:21:38.653Z</time>
      </trkpt>
      <trkpt lat="49.64117" lon="5.88734">
        <ele>335.161709</ele>
        <time>2023-01-23T23:21:42.873Z</time>
      </trkpt>
      <trkpt lat="49.6411" lon="5.88703">
        <ele>335.046732</ele>
        <time>2023-01-23T23:21:47.397Z</time>
      </trkpt>
      <trkpt lat="49.64104" lon="5.88627">
        <ele>334.78214</ele>
        <time>2023-01-23T23:21:57.547Z</time>
      </trkpt>
      <trkpt lat="49.641" lon="5.88578">
        <ele>334.600682</ele>
        <time>2023-01-23T23:22:04.025Z</time>
      </trkpt>
      <trkpt lat="49.64088" lon="5.88483">
        <ele>334.175253</ele>
        <time>2023-01-23T23:22:16.632Z</time>
      </trkpt>
      <trkpt lat="49.64087" lon="5.88385">
        <ele>333.741744</ele>
        <time>2023-01-23T23:22:29.415Z</time>
      </trkpt>
      <trkpt lat="49.64091" lon="5.88357">
        <ele>333.617711</ele>
        <time>2023-01-23T23:22:33.136Z</time>
      </trkpt>
      <trkpt lat="49.6412" lon="5.88241">
        <ele>333.625468</ele>
        <time>2023-01-23T23:22:51.008Z</time>
      </trkpt>
      <trkpt lat="49.64131" lon="5.88209">
        <ele>333.714936</ele>
        <time>2023-01-23T23:22:56.629Z</time>
      </trkpt>
      <trkpt lat="49.64177" lon="5.88117">
        <ele>334.000926</ele>
        <time>2023-01-23T23:23:15.973Z</time>
      </trkpt>
      <trkpt lat="49.64252" lon="5.87935">
        <ele>334.365491</ele>
        <time>2023-01-23T23:23:52.027Z</time>
      </trkpt>
      <trkpt lat="49.6427" lon="5.87903">
        <ele>334.426522</ele>
        <time>2023-01-23T23:23:58.099Z</time>
      </trkpt>
      <trkpt lat="49.64313" lon="5.87838">
        <ele>334.236532</ele>
        <time>2023-01-23T23:24:10.529Z</time>
      </trkpt>
      <trkpt lat="49.64353" lon="5.87747">
        <ele>333.106194</ele>
        <time>2023-01-23T23:24:24.390Z</time>
      </trkpt>
      <trkpt lat="49.64381" lon="5.8773">
        <ele>332.638949</ele>
        <time>2023-01-23T23:24:30.192Z</time>
      </trkpt>
      <trkpt lat="49.64392" lon="5.87729">
        <ele>332.462151</ele>
        <time>2023-01-23T23:24:32.400Z</time>
      </trkpt>
      <trkpt lat="49.64402" lon="5.87729">
        <ele>332.308229</ele>
        <time>2023-01-23T23:24:34.349Z</time>
      </trkpt>
      <trkpt lat="49.6441" lon="5.87725">
        <ele>332.184091</ele>
        <time>2023-01-23T23:24:35.696Z</time>
      </trkpt>
      <trkpt lat="49.64412" lon="5.87717">
        <ele>332.09528</ele>
        <time>2023-01-23T23:24:36.768Z</time>
      </trkpt>
      <trkpt lat="49.6442" lon="5.87638">
        <ele>331.189773</ele>
        <time>2023-01-23T23:24:45.952Z</time>
      </trkpt>
      <trkpt lat="49.64426" lon="5.87618">
        <ele>330.910113</ele>
        <time>2023-01-23T23:24:48.485Z</time>
      </trkpt>
      <trkpt lat="49.64435" lon="5.876">
        <ele>330.623137</ele>
        <time>2023-01-23T23:24:51.177Z</time>
      </trkpt>
      <trkpt lat="49.64452" lon="5.87577">
        <ele>330.179106</ele>
        <time>2023-01-23T23:24:55.260Z</time>
      </trkpt>
      <trkpt lat="49.64478" lon="5.87547">
        <ele>329.557738</ele>
        <time>2023-01-23T23:25:01.077Z</time>
      </trkpt>
      <trkpt lat="49.64501" lon="5.87526">
        <ele>329.042047</ele>
        <time>2023-01-23T23:25:06.026Z</time>
      </trkpt>
      <trkpt lat="49.64604" lon="5.87444">
        <ele>327.671782</ele>
        <time>2023-01-23T23:25:28.603Z</time>
      </trkpt>
      <trkpt lat="49.64646" lon="5.87401">
        <ele>327.292602</ele>
        <time>2023-01-23T23:25:39.227Z</time>
      </trkpt>
      <trkpt lat="49.64672" lon="5.87362">
        <ele>327.022917</ele>
        <time>2023-01-23T23:25:47.079Z</time>
      </trkpt>
      <trkpt lat="49.64681" lon="5.87343">
        <ele>326.914617</ele>
        <time>2023-01-23T23:25:50.246Z</time>
      </trkpt>
      <trkpt lat="49.64692" lon="5.87304">
        <ele>326.802346</ele>
        <time>2023-01-23T23:25:56.196Z</time>
      </trkpt>
      <trkpt lat="49.64695" lon="5.87279">
        <ele>326.747425</ele>
        <time>2023-01-23T23:25:59.769Z</time>
      </trkpt>
      <trkpt lat="49.64695" lon="5.87234">
        <ele>326.650443</ele>
        <time>2023-01-23T23:26:06.073Z</time>
      </trkpt>
      <trkpt lat="49.64682" lon="5.87103">
        <ele>326.368293</ele>
        <time>2023-01-23T23:26:24.009Z</time>
      </trkpt>
      <trkpt lat="49.64682" lon="5.87072">
        <ele>326.300997</ele>
        <time>2023-01-23T23:26:28.687Z</time>
      </trkpt>
      <trkpt lat="49.6469" lon="5.86986">
        <ele>326.400176</ele>
        <time>2023-01-23T23:26:40.517Z</time>
      </trkpt>
      <trkpt lat="49.64695" lon="5.86961">
        <ele>326.440001</ele>
        <time>2023-01-23T23:26:44.486Z</time>
      </trkpt>
      <trkpt lat="49.64713" lon="5.86925">
        <ele>326.50814</ele>
        <time>2023-01-23T23:26:51.486Z</time>
      </trkpt>
      <trkpt lat="49.64722" lon="5.86899">
        <ele>326.551943</ele>
        <time>2023-01-23T23:26:55.659Z</time>
      </trkpt>
      <trkpt lat="49.64695" lon="5.86892">
        <ele>326.614527</ele>
        <time>2023-01-23T23:27:02.590Z</time>
      </trkpt>
      <trkpt lat="49.64669" lon="5.86851">
        <ele>326.701518</ele>
        <time>2023-01-23T23:27:12.084Z</time>
      </trkpt>
      <trkpt lat="49.64628" lon="5.86741">
        <ele>327.179556</ele>
        <time>2023-01-23T23:27:33.426Z</time>
      </trkpt>
      <trkpt lat="49.64602" lon="5.86704">
        <ele>327.384424</ele>
        <time>2023-01-23T23:27:43.389Z</time>
      </trkpt>
      <trkpt lat="49.64576" lon="5.8666">
        <ele>327.609711</ele>
        <time>2023-01-23T23:27:52.893Z</time>
      </trkpt>
      <trkpt lat="49.64563" lon="5.86623">
        <ele>327.710567</ele>
        <time>2023-01-23T23:27:59.274Z</time>
      </trkpt>
      <trkpt lat="49.64588" lon="5.86554">
        <ele>327.22578</ele>
        <time>2023-01-23T23:28:10.367Z</time>
      </trkpt>
      <trkpt lat="49.64593" lon="5.86531">
        <ele>327.081908</ele>
        <time>2023-01-23T23:28:13.262Z</time>
      </trkpt>
      <trkpt lat="49.64595" lon="5.86482">
        <ele>326.77584</ele>
        <time>2023-01-23T23:28:19.530Z</time>
      </trkpt>
      <trkpt lat="49.64594" lon="5.86389">
        <ele>326.205865</ele>
        <time>2023-01-23T23:28:31.073Z</time>
      </trkpt>
      <trkpt lat="49.64587" lon="5.86338">
        <ele>325.846786</ele>
        <time>2023-01-23T23:28:37.363Z</time>
      </trkpt>
      <trkpt lat="49.64582" lon="5.86317">
        <ele>325.661027</ele>
        <time>2023-01-23T23:28:40.108Z</time>
      </trkpt>
      <trkpt lat="49.64637" lon="5.86312">
        <ele>324.978578</ele>
        <time>2023-01-23T23:28:50.682Z</time>
      </trkpt>
      <trkpt lat="49.64642" lon="5.86312">
        <ele>324.919624</ele>
        <time>2023-01-23T23:28:51.564Z</time>
      </trkpt>
      <trkpt lat="49.64644" lon="5.86312">
        <ele>324.891378</ele>
        <time>2023-01-23T23:28:51.974Z</time>
      </trkpt>
      <trkpt lat="49.6466" lon="5.86215">
        <ele>324.095833</ele>
        <time>2023-01-23T23:29:04.729Z</time>
      </trkpt>
      <trkpt lat="49.64672" lon="5.8617">
        <ele>323.85198</ele>
        <time>2023-01-23T23:29:11.238Z</time>
      </trkpt>
      <trkpt lat="49.64676" lon="5.86164">
        <ele>323.863252</ele>
        <time>2023-01-23T23:29:12.376Z</time>
      </trkpt>
      <trkpt lat="49.64751" lon="5.86134">
        <ele>324.013898</ele>
        <time>2023-01-23T23:29:30.386Z</time>
      </trkpt>
      <trkpt lat="49.64751" lon="5.86134">
        <ele>324.013898</ele>
        <time>2023-01-23T23:29:30.540Z</time>
      </trkpt>
      <trkpt lat="49.64761" lon="5.86123">
        <ele>324.038047</ele>
        <time>2023-01-23T23:29:33.782Z</time>
      </trkpt>
      <trkpt lat="49.64764" lon="5.86105">
        <ele>324.062283</ele>
        <time>2023-01-23T23:29:36.421Z</time>
      </trkpt>
      <trkpt lat="49.64759" lon="5.86075">
        <ele>324.100691</ele>
        <time>2023-01-23T23:29:41.882Z</time>
      </trkpt>
      <trkpt lat="49.64755" lon="5.86035">
        <ele>324.15143</ele>
        <time>2023-01-23T23:29:47.543Z</time>
      </trkpt>
      <trkpt lat="49.64757" lon="5.85987">
        <ele>324.181452</ele>
        <time>2023-01-23T23:29:55.151Z</time>
      </trkpt>
      <trkpt lat="49.64761" lon="5.85967">
        <ele>324.180215</ele>
        <time>2023-01-23T23:29:59.017Z</time>
      </trkpt>
      <trkpt lat="49.64765" lon="5.85956">
        <ele>324.179412</ele>
        <time>2023-01-23T23:30:00.924Z</time>
      </trkpt>
      <trkpt lat="49.64773" lon="5.85949">
        <ele>324.178549</ele>
        <time>2023-01-23T23:30:02.859Z</time>
      </trkpt>
      <trkpt lat="49.64787" lon="5.85945">
        <ele>324.177203</ele>
        <time>2023-01-23T23:30:06.895Z</time>
      </trkpt>
      <trkpt lat="49.64787" lon="5.85849">
        <ele>324.171433</ele>
        <time>2023-01-23T23:30:20.120Z</time>
      </trkpt>
      <trkpt lat="49.64782" lon="5.85821">
        <ele>324.169692</ele>
        <time>2023-01-23T23:30:24.107Z</time>
      </trkpt>
      <trkpt lat="49.64774" lon="5.85802">
        <ele>324.168322</ele>
        <time>2023-01-23T23:30:27.216Z</time>
      </trkpt>
      <trkpt lat="49.64763" lon="5.85784">
        <ele>324.166814</ele>
        <time>2023-01-23T23:30:30.808Z</time>
      </trkpt>
      <trkpt lat="49.64746" lon="5.85767">
        <ele>324.229942</ele>
        <time>2023-01-23T23:30:34.983Z</time>
      </trkpt>
      <trkpt lat="49.64732" lon="5.85744">
        <ele>324.33697</ele>
        <time>2023-01-23T23:30:39.657Z</time>
      </trkpt>
      <trkpt lat="49.64712" lon="5.85689">
        <ele>324.547977</ele>
        <time>2023-01-23T23:30:48.695Z</time>
      </trkpt>
      <trkpt lat="49.64704" lon="5.85653">
        <ele>324.675444</ele>
        <time>2023-01-23T23:30:54.684Z</time>
      </trkpt>
      <trkpt lat="49.64701" lon="5.85622">
        <ele>324.781143</ele>
        <time>2023-01-23T23:30:59.954Z</time>
      </trkpt>
      <trkpt lat="49.64701" lon="5.85552">
        <ele>325.01435</ele>
        <time>2023-01-23T23:31:12.219Z</time>
      </trkpt>
      <trkpt lat="49.64721" lon="5.85284">
        <ele>327.740798</ele>
        <time>2023-01-23T23:32:06.036Z</time>
      </trkpt>
      <trkpt lat="49.64727" lon="5.85254">
        <ele>328.079802</ele>
        <time>2023-01-23T23:32:12.562Z</time>
      </trkpt>
      <trkpt lat="49.6474" lon="5.85214">
        <ele>328.375821</ele>
        <time>2023-01-23T23:32:21.527Z</time>
      </trkpt>
      <trkpt lat="49.64757" lon="5.85179">
        <ele>328.66377</ele>
        <time>2023-01-23T23:32:30.061Z</time>
      </trkpt>
      <trkpt lat="49.64773" lon="5.85152">
        <ele>328.904616</ele>
        <time>2023-01-23T23:32:37.308Z</time>
      </trkpt>
      <trkpt lat="49.64788" lon="5.85135">
        <ele>329.097255</ele>
        <time>2023-01-23T23:32:42.028Z</time>
      </trkpt>
      <trkpt lat="49.64806" lon="5.85122">
        <ele>329.293918</ele>
        <time>2023-01-23T23:32:47.345Z</time>
      </trkpt>
      <trkpt lat="49.64819" lon="5.85115">
        <ele>329.439804</ele>
        <time>2023-01-23T23:32:50.564Z</time>
      </trkpt>
      <trkpt lat="49.6487" lon="5.85101">
        <ele>329.944601</ele>
        <time>2023-01-23T23:33:02.973Z</time>
      </trkpt>
      <trkpt lat="49.64886" lon="5.85087">
        <ele>330.048056</ele>
        <time>2023-01-23T23:33:06.933Z</time>
      </trkpt>
      <trkpt lat="49.64896" lon="5.8507">
        <ele>330.130484</ele>
        <time>2023-01-23T23:33:11.095Z</time>
      </trkpt>
      <trkpt lat="49.64906" lon="5.8504">
        <ele>330.252938</ele>
        <time>2023-01-23T23:33:15.769Z</time>
      </trkpt>
      <trkpt lat="49.64912" lon="5.84987">
        <ele>330.449436</ele>
        <time>2023-01-23T23:33:24.318Z</time>
      </trkpt>
      <trkpt lat="49.64919" lon="5.84948">
        <ele>330.596011</ele>
        <time>2023-01-23T23:33:31.045Z</time>
      </trkpt>
      <trkpt lat="49.6494" lon="5.84876">
        <ele>330.885742</ele>
        <time>2023-01-23T23:33:44.548Z</time>
      </trkpt>
      <trkpt lat="49.6497" lon="5.84813">
        <ele>331.357907</ele>
        <time>2023-01-23T23:33:58.134Z</time>
      </trkpt>
      <trkpt lat="49.65002" lon="5.84772">
        <ele>331.765871</ele>
        <time>2023-01-23T23:34:10.039Z</time>
      </trkpt>
      <trkpt lat="49.65035" lon="5.84744">
        <ele>332.138205</ele>
        <time>2023-01-23T23:34:21.327Z</time>
      </trkpt>
      <trkpt lat="49.65072" lon="5.84724">
        <ele>332.534143</ele>
        <time>2023-01-23T23:34:32.698Z</time>
      </trkpt>
      <trkpt lat="49.65096" lon="5.84706">
        <ele>332.698388</ele>
        <time>2023-01-23T23:34:38.398Z</time>
      </trkpt>
      <trkpt lat="49.65103" lon="5.84694">
        <ele>332.678575</ele>
        <time>2023-01-23T23:34:42.254Z</time>
      </trkpt>
      <trkpt lat="49.65108" lon="5.84686">
        <ele>332.663902</ele>
        <time>2023-01-23T23:34:43.483Z</time>
      </trkpt>
      <trkpt lat="49.65138" lon="5.84575">
        <ele>332.508511</ele>
        <time>2023-01-23T23:35:00.920Z</time>
      </trkpt>
      <trkpt lat="49.65168" lon="5.84488">
        <ele>332.381937</ele>
        <time>2023-01-23T23:35:14.183Z</time>
      </trkpt>
      <trkpt lat="49.65171" lon="5.84465">
        <ele>332.347581</ele>
        <time>2023-01-23T23:35:16.960Z</time>
      </trkpt>
      <trkpt lat="49.65174" lon="5.84412">
        <ele>332.212319</ele>
        <time>2023-01-23T23:35:24.080Z</time>
      </trkpt>
      <trkpt lat="49.65158" lon="5.84387">
        <ele>332.125431</ele>
        <time>2023-01-23T23:35:28.781Z</time>
      </trkpt>
      <trkpt lat="49.65165" lon="5.84352">
        <ele>332.033842</ele>
        <time>2023-01-23T23:35:33.565Z</time>
      </trkpt>
      <trkpt lat="49.6517" lon="5.84322">
        <ele>331.956031</ele>
        <time>2023-01-23T23:35:37.965Z</time>
      </trkpt>
      <trkpt lat="49.65167" lon="5.84306">
        <ele>331.913753</ele>
        <time>2023-01-23T23:35:40.168Z</time>
      </trkpt>
      <trkpt lat="49.65175" lon="5.84275">
        <ele>331.830038</ele>
        <time>2023-01-23T23:35:45.068Z</time>
      </trkpt>
      <trkpt lat="49.65213" lon="5.84174">
        <ele>331.867743</ele>
        <time>2023-01-23T23:36:01.711Z</time>
      </trkpt>
      <trkpt lat="49.65223" lon="5.84161">
        <ele>331.955928</ele>
        <time>2023-01-23T23:36:04.449Z</time>
      </trkpt>
      <trkpt lat="49.65252" lon="5.84158">
        <ele>332.150256</ele>
        <time>2023-01-23T23:36:11.358Z</time>
      </trkpt>
      <trkpt lat="49.65274" lon="5.84152">
        <ele>332.307293</ele>
        <time>2023-01-23T23:36:17.130Z</time>
      </trkpt>
      <trkpt lat="49.65366" lon="5.84103">
        <ele>333.080813</ele>
        <time>2023-01-23T23:36:44.511Z</time>
      </trkpt>
      <trkpt lat="49.65377" lon="5.84099">
        <ele>333.270608</ele>
        <time>2023-01-23T23:36:47.883Z</time>
      </trkpt>
      <trkpt lat="49.65401" lon="5.84097">
        <ele>333.652431</ele>
        <time>2023-01-23T23:36:55.075Z</time>
      </trkpt>
      <trkpt lat="49.6548" lon="5.84076">
        <ele>334.950765</ele>
        <time>2023-01-23T23:37:19.271Z</time>
      </trkpt>
      <trkpt lat="49.65509" lon="5.84066">
        <ele>335.42897</ele>
        <time>2023-01-23T23:37:28.723Z</time>
      </trkpt>
      <trkpt lat="49.6553" lon="5.84053">
        <ele>335.792713</ele>
        <time>2023-01-23T23:37:36.050Z</time>
      </trkpt>
      <trkpt lat="49.6556" lon="5.84018">
        <ele>336.500442</ele>
        <time>2023-01-23T23:37:48.162Z</time>
      </trkpt>
      <trkpt lat="49.65636" lon="5.83949">
        <ele>338.170932</ele>
        <time>2023-01-23T23:38:15.925Z</time>
      </trkpt>
      <trkpt lat="49.65657" lon="5.83934">
        <ele>338.606474</ele>
        <time>2023-01-23T23:38:23.615Z</time>
      </trkpt>
      <trkpt lat="49.65735" lon="5.839">
        <ele>339.907396</ele>
        <time>2023-01-23T23:38:48.481Z</time>
      </trkpt>
      <trkpt lat="49.65781" lon="5.83861">
        <ele>340.67759</ele>
        <time>2023-01-23T23:39:03.941Z</time>
      </trkpt>
      <trkpt lat="49.65853" lon="5.83802">
        <ele>341.912938</ele>
        <time>2023-01-23T23:39:26.617Z</time>
      </trkpt>
      <trkpt lat="49.65866" lon="5.83789">
        <ele>342.258964</ele>
        <time>2023-01-23T23:39:30.865Z</time>
      </trkpt>
      <trkpt lat="49.65885" lon="5.83779">
        <ele>342.716923</ele>
        <time>2023-01-23T23:39:37.332Z</time>
      </trkpt>
      <trkpt lat="49.6595" lon="5.83758">
        <ele>344.245511</ele>
        <time>2023-01-23T23:39:59.662Z</time>
      </trkpt>
      <trkpt lat="49.66016" lon="5.83705">
        <ele>345.959313</ele>
        <time>2023-01-23T23:40:26.327Z</time>
      </trkpt>
      <trkpt lat="49.66078" lon="5.83654">
        <ele>348.573251</ele>
        <time>2023-01-23T23:40:53.466Z</time>
      </trkpt>
      <trkpt lat="49.66121" lon="5.83609">
        <ele>350.51708</ele>
        <time>2023-01-23T23:41:16.366Z</time>
      </trkpt>
      <trkpt lat="49.66143" lon="5.83577">
        <ele>351.661116</ele>
        <time>2023-01-23T23:41:29.961Z</time>
      </trkpt>
      <trkpt lat="49.6618" lon="5.83502">
        <ele>353.935205</ele>
        <time>2023-01-23T23:41:54.789Z</time>
      </trkpt>
      <trkpt lat="49.66191" lon="5.83486">
        <ele>354.481121</ele>
        <time>2023-01-23T23:42:01.307Z</time>
      </trkpt>
      <trkpt lat="49.66214" lon="5.83464">
        <ele>355.483635</ele>
        <time>2023-01-23T23:42:10.483Z</time>
      </trkpt>
      <trkpt lat="49.66215" lon="5.83454">
        <ele>355.74798</ele>
        <time>2023-01-23T23:42:14.600Z</time>
      </trkpt>
      <trkpt lat="49.66232" lon="5.83426">
        <ele>356.65012</ele>
        <time>2023-01-23T23:42:23.921Z</time>
      </trkpt>
      <trkpt lat="49.66237" lon="5.8341">
        <ele>357.0723</ele>
        <time>2023-01-23T23:42:29.616Z</time>
      </trkpt>
      <trkpt lat="49.66236" lon="5.83392">
        <ele>357.518471</ele>
        <time>2023-01-23T23:42:34.246Z</time>
      </trkpt>
      <trkpt lat="49.66227" lon="5.83365">
        <ele>358.250586</ele>
        <time>2023-01-23T23:42:42.244Z</time>
      </trkpt>
      <trkpt lat="49.66188" lon="5.83269">
        <ele>360.694545</ele>
        <time>2023-01-23T23:43:13.839Z</time>
      </trkpt>
      <trkpt lat="49.6617" lon="5.83236">
        <ele>361.550701</ele>
        <time>2023-01-23T23:43:24.566Z</time>
      </trkpt>
      <trkpt lat="49.6609" lon="5.83113">
        <ele>364.986622</ele>
        <time>2023-01-23T23:44:05.577Z</time>
      </trkpt>
      <trkpt lat="49.66083" lon="5.83095">
        <ele>365.291543</ele>
        <time>2023-01-23T23:44:10.638Z</time>
      </trkpt>
      <trkpt lat="49.66079" lon="5.83073">
        <ele>365.635471</ele>
        <time>2023-01-23T23:44:16.644Z</time>
      </trkpt>
      <trkpt lat="49.66078" lon="5.83048">
        <ele>365.994217</ele>
        <time>2023-01-23T23:44:22.476Z</time>
      </trkpt>
      <trkpt lat="49.66081" lon="5.83022">
        <ele>366.385303</ele>
        <time>2023-01-23T23:44:28.739Z</time>
      </trkpt>
      <trkpt lat="49.66125" lon="5.82897">
        <ele>368.448366</ele>
        <time>2023-01-23T23:45:00.021Z</time>
      </trkpt>
      <trkpt lat="49.66128" lon="5.82881">
        <ele>368.684814</ele>
        <time>2023-01-23T23:45:03.535Z</time>
      </trkpt>
      <trkpt lat="49.6613" lon="5.82866">
        <ele>368.906777</ele>
        <time>2023-01-23T23:45:06.639Z</time>
      </trkpt>
      <trkpt lat="49.6613" lon="5.82845">
        <ele>369.058322</ele>
        <time>2023-01-23T23:45:10.946Z</time>
      </trkpt>
      <trkpt lat="49.66126" lon="5.82832">
        <ele>369.158799</ele>
        <time>2023-01-23T23:45:14.169Z</time>
      </trkpt>
      <trkpt lat="49.65911" lon="5.82625">
        <ele>371.846826</ele>
        <time>2023-01-23T23:46:23.637Z</time>
      </trkpt>
      <trkpt lat="49.65868" lon="5.82588">
        <ele>372.341558</ele>
        <time>2023-01-23T23:46:37.260Z</time>
      </trkpt>
      <trkpt lat="49.65875" lon="5.82583">
        <ele>372.419476</ele>
        <time>2023-01-23T23:46:40.761Z</time>
      </trkpt>
      <trkpt lat="49.65936" lon="5.82537">
        <ele>373.447364</ele>
        <time>2023-01-23T23:47:10.424Z</time>
      </trkpt>
      <trkpt lat="49.65957" lon="5.82523">
        <ele>373.852954</ele>
        <time>2023-01-23T23:47:18.682Z</time>
      </trkpt>
      <trkpt lat="49.65961" lon="5.8252">
        <ele>373.947981</ele>
        <time>2023-01-23T23:47:20.759Z</time>
      </trkpt>
      <trkpt lat="49.66004" lon="5.82491">
        <ele>374.810649</ele>
        <time>2023-01-23T23:47:42.033Z</time>
      </trkpt>
      <trkpt lat="49.6601" lon="5.82483">
        <ele>374.947877</ele>
        <time>2023-01-23T23:47:45.718Z</time>
      </trkpt>
      <trkpt lat="49.66014" lon="5.82468">
        <ele>375.137499</ele>
        <time>2023-01-23T23:47:50.782Z</time>
      </trkpt>
      <trkpt lat="49.66014" lon="5.82413">
        <ele>375.792885</ele>
        <time>2023-01-23T23:48:07.867Z</time>
      </trkpt>
      <trkpt lat="49.66011" lon="5.82362">
        <ele>376.604829</ele>
        <time>2023-01-23T23:48:24.838Z</time>
      </trkpt>
      <trkpt lat="49.66" lon="5.82294">
        <ele>377.853627</ele>
        <time>2023-01-23T23:48:48.245Z</time>
      </trkpt>
      <trkpt lat="49.6598" lon="5.82198">
        <ele>379.639876</ele>
        <time>2023-01-23T23:49:19.418Z</time>
      </trkpt>
      <trkpt lat="49.65981" lon="5.82191">
        <ele>379.77161</ele>
        <time>2023-01-23T23:49:22.050Z</time>
      </trkpt>
      <trkpt lat="49.65981" lon="5.82191">
        <ele>379.77161</ele>
        <time>2023-01-23T23:49:22.091Z</time>
      </trkpt>
      <trkpt lat="49.65981" lon="5.82191">
        <ele>379.77161</ele>
        <time>2023-01-23T23:49:22.091Z</time>
      </trkpt>
      <trkpt lat="49.6598" lon="5.82198">
        <ele>379.903344</ele>
        <time>2023-01-23T23:49:23.331Z</time>
      </trkpt>
      <trkpt lat="49.65985" lon="5.8208">
        <ele>382.369713</ele>
        <time>2023-01-23T23:49:43.106Z</time>
      </trkpt>
      <trkpt lat="49.66" lon="5.8198">
        <ele>384.84124</ele>
        <time>2023-01-23T23:50:00.381Z</time>
      </trkpt>
      <trkpt lat="49.66069" lon="5.81967">
        <ele>387.406585</ele>
        <time>2023-01-23T23:50:18.311Z</time>
      </trkpt>
      <trkpt lat="49.66137" lon="5.81954">
        <ele>390.225541</ele>
        <time>2023-01-23T23:50:36.268Z</time>
      </trkpt>
      <trkpt lat="49.66206" lon="5.81941">
        <ele>393.061724</ele>
        <time>2023-01-23T23:50:54.198Z</time>
      </trkpt>
      <trkpt lat="49.66206" lon="5.81941">
        <ele>393.061724</ele>
        <time>2023-01-23T23:50:54.289Z</time>
      </trkpt>
      <trkpt lat="49.66206" lon="5.81941">
        <ele>393.061724</ele>
        <time>2023-01-23T23:50:54.831Z</time>
      </trkpt>
      <trkpt lat="49.66291" lon="5.8193">
        <ele>396.360678</ele>
        <time>2023-01-23T23:51:34.308Z</time>
      </trkpt>
      <trkpt lat="49.66314" lon="5.81925">
        <ele>397.188886</ele>
        <time>2023-01-23T23:51:44.453Z</time>
      </trkpt>
      <trkpt lat="49.66359" lon="5.81904">
        <ele>398.901174</ele>
        <time>2023-01-23T23:52:05.520Z</time>
      </trkpt>
      <trkpt lat="49.66374" lon="5.81896">
        <ele>399.479785</ele>
        <time>2023-01-23T23:52:11.966Z</time>
      </trkpt>
      <trkpt lat="49.66381" lon="5.81893">
        <ele>399.760599</ele>
        <time>2023-01-23T23:52:14.903Z</time>
      </trkpt>
      <trkpt lat="49.66394" lon="5.8189">
        <ele>400.234169</ele>
        <time>2023-01-23T23:52:20.230Z</time>
      </trkpt>
      <trkpt lat="49.66468" lon="5.81875">
        <ele>401.587847</ele>
        <time>2023-01-23T23:52:45.636Z</time>
      </trkpt>
      <trkpt lat="49.66548" lon="5.81851">
        <ele>401.791971</ele>
        <time>2023-01-23T23:53:05.125Z</time>
      </trkpt>
      <trkpt lat="49.6666" lon="5.81798">
        <ele>401.628905</ele>
        <time>2023-01-23T23:53:28.806Z</time>
      </trkpt>
      <trkpt lat="49.6666" lon="5.81792">
        <ele>401.607142</ele>
        <time>2023-01-23T23:53:29.574Z</time>
      </trkpt>
      <trkpt lat="49.66629" lon="5.81495">
        <ele>401.666228</ele>
        <time>2023-01-23T23:54:12.455Z</time>
      </trkpt>
      <trkpt lat="49.66571" lon="5.81037">
        <ele>405.039326</ele>
        <time>2023-01-23T23:55:43.733Z</time>
      </trkpt>
      <trkpt lat="49.66549" lon="5.80931">
        <ele>404.584268</ele>
        <time>2023-01-23T23:55:58.691Z</time>
      </trkpt>
      <trkpt lat="49.66535" lon="5.80875">
        <ele>404.339361</ele>
        <time>2023-01-23T23:56:06.031Z</time>
      </trkpt>
      <trkpt lat="49.66614" lon="5.80716">
        <ele>403.536556</ele>
        <time>2023-01-23T23:56:31.031Z</time>
      </trkpt>
      <trkpt lat="49.66544" lon="5.80716">
        <ele>403.108984</ele>
        <time>2023-01-23T23:56:45.673Z</time>
      </trkpt>
      <trkpt lat="49.66531" lon="5.80712">
        <ele>403.027496</ele>
        <time>2023-01-23T23:56:49.331Z</time>
      </trkpt>
      <trkpt lat="49.66516" lon="5.80706">
        <ele>402.934771</ele>
        <time>2023-01-23T23:56:52.694Z</time>
      </trkpt>
      <trkpt lat="49.66485" lon="5.80683">
        <ele>402.863584</ele>
        <time>2023-01-23T23:57:02.335Z</time>
      </trkpt>
      <trkpt lat="49.66477" lon="5.80705">
        <ele>402.829988</ele>
        <time>2023-01-23T23:57:07.225Z</time>
      </trkpt>
      <trkpt lat="49.66468" lon="5.80718">
        <ele>402.804281</ele>
        <time>2023-01-23T23:57:10.663Z</time>
      </trkpt>
      <trkpt lat="49.66459" lon="5.80727">
        <ele>402.781688</ele>
        <time>2023-01-23T23:57:13.530Z</time>
      </trkpt>
      <trkpt lat="49.66448" lon="5.80732">
        <ele>402.758629</ele>
        <time>2023-01-23T23:57:16.602Z</time>
      </trkpt>
      <trkpt lat="49.66355" lon="5.80753">
        <ele>402.5622</ele>
        <time>2023-01-23T23:57:36.576Z</time>
      </trkpt>
      <trkpt lat="49.66251" lon="5.80712">
        <ele>400.572041</ele>
        <time>2023-01-23T23:57:57.383Z</time>
      </trkpt>
      <trkpt lat="49.66232" lon="5.80706">
        <ele>400.203735</ele>
        <time>2023-01-23T23:58:01.002Z</time>
      </trkpt>
      <trkpt lat="49.6617" lon="5.80697">
        <ele>399.151727</ele>
        <time>2023-01-23T23:58:12.664Z</time>
      </trkpt>
      <trkpt lat="49.66157" lon="5.80688">
        <ele>399.071101</ele>
        <time>2023-01-23T23:58:15.234Z</time>
      </trkpt>
      <trkpt lat="49.66113" lon="5.80653">
        <ele>398.777092</ele>
        <time>2023-01-23T23:58:25.756Z</time>
      </trkpt>
      <trkpt lat="49.66092" lon="5.80644">
        <ele>398.653582</ele>
        <time>2023-01-23T23:58:30.560Z</time>
      </trkpt>
      <trkpt lat="49.66045" lon="5.80641">
        <ele>398.377049</ele>
        <time>2023-01-23T23:58:43.018Z</time>
      </trkpt>
      <trkpt lat="49.65934" lon="5.806">
        <ele>398.13871</ele>
        <time>2023-01-23T23:59:13.258Z</time>
      </trkpt>
      <trkpt lat="49.65896" lon="5.80589">
        <ele>398.134236</ele>
        <time>2023-01-23T23:59:23.232Z</time>
      </trkpt>
      <trkpt lat="49.65818" lon="5.80563">
        <ele>397.878669</ele>
        <time>2023-01-23T23:59:42.441Z</time>
      </trkpt>
      <trkpt lat="49.6574" lon="5.80531">
        <ele>396.403211</ele>
        <time>2023-01-23T23:59:59.659Z</time>
      </trkpt>
      <trkpt lat="49.65667" lon="5.8051">
        <ele>395.04837</ele>
        <time>2023-01-24T00:00:14.656Z</time>
      </trkpt>
      <trkpt lat="49.65646" lon="5.80508">
        <ele>394.593037</ele>
        <time>2023-01-24T00:00:18.579Z</time>
      </trkpt>
      <trkpt lat="49.65537" lon="5.80477">
        <ele>391.554768</ele>
        <time>2023-01-24T00:00:40.505Z</time>
      </trkpt>
      <trkpt lat="49.65496" lon="5.80475">
        <ele>390.45114</ele>
        <time>2023-01-24T00:00:48.468Z</time>
      </trkpt>
      <trkpt lat="49.65403" lon="5.8048">
        <ele>387.509488</ele>
        <time>2023-01-24T00:01:07.513Z</time>
      </trkpt>
      <trkpt lat="49.65269" lon="5.80469">
        <ele>382.57962</ele>
        <time>2023-01-24T00:01:32.761Z</time>
      </trkpt>
      <trkpt lat="49.65136" lon="5.80495">
        <ele>375.49288</ele>
        <time>2023-01-24T00:01:56.600Z</time>
      </trkpt>
      <trkpt lat="49.65068" lon="5.80503">
        <ele>371.576515</ele>
        <time>2023-01-24T00:02:08.197Z</time>
      </trkpt>
      <trkpt lat="49.64924" lon="5.80509">
        <ele>363.456088</ele>
        <time>2023-01-24T00:02:33.391Z</time>
      </trkpt>
      <trkpt lat="49.64895" lon="5.80514">
        <ele>362.431042</ele>
        <time>2023-01-24T00:02:38.810Z</time>
      </trkpt>
      <trkpt lat="49.64874" lon="5.80526">
        <ele>361.673921</ele>
        <time>2023-01-24T00:02:42.780Z</time>
      </trkpt>
      <trkpt lat="49.64818" lon="5.80547">
        <ele>359.651008</ele>
        <time>2023-01-24T00:02:54.118Z</time>
      </trkpt>
      <trkpt lat="49.64793" lon="5.80565">
        <ele>358.680774</ele>
        <time>2023-01-24T00:02:59.766Z</time>
      </trkpt>
      <trkpt lat="49.64756" lon="5.80616">
        <ele>357.077375</ele>
        <time>2023-01-24T00:03:09.814Z</time>
      </trkpt>
      <trkpt lat="49.64721" lon="5.80653">
        <ele>355.807211</ele>
        <time>2023-01-24T00:03:18.577Z</time>
      </trkpt>
      <trkpt lat="49.64641" lon="5.80722">
        <ele>353.072371</ele>
        <time>2023-01-24T00:03:36.373Z</time>
      </trkpt>
      <trkpt lat="49.64598" lon="5.80796">
        <ele>350.913451</ele>
        <time>2023-01-24T00:03:48.393Z</time>
      </trkpt>
      <trkpt lat="49.64554" lon="5.80834">
        <ele>349.155001</ele>
        <time>2023-01-24T00:03:57.469Z</time>
      </trkpt>
      <trkpt lat="49.64491" lon="5.80883">
        <ele>346.672902</ele>
        <time>2023-01-24T00:04:10.926Z</time>
      </trkpt>
      <trkpt lat="49.64471" lon="5.8089">
        <ele>346.022278</ele>
        <time>2023-01-24T00:04:15.045Z</time>
      </trkpt>
      <trkpt lat="49.64445" lon="5.80892">
        <ele>345.817468</ele>
        <time>2023-01-24T00:04:20.475Z</time>
      </trkpt>
      <trkpt lat="49.64428" lon="5.80891">
        <ele>345.684658</ele>
        <time>2023-01-24T00:04:24.406Z</time>
      </trkpt>
      <trkpt lat="49.64358" lon="5.80881">
        <ele>345.130808</ele>
        <time>2023-01-24T00:04:50.131Z</time>
      </trkpt>
      <trkpt lat="49.64315" lon="5.80892">
        <ele>344.794056</ele>
        <time>2023-01-24T00:05:05.658Z</time>
      </trkpt>
      <trkpt lat="49.64293" lon="5.80894">
        <ele>344.602036</ele>
        <time>2023-01-24T00:05:13.607Z</time>
      </trkpt>
      <trkpt lat="49.64283" lon="5.8089">
        <ele>344.422195</ele>
        <time>2023-01-24T00:05:18.103Z</time>
      </trkpt>
      <trkpt lat="49.64261" lon="5.80877">
        <ele>344.017865</ele>
        <time>2023-01-24T00:05:26.772Z</time>
      </trkpt>
      <trkpt lat="49.64214" lon="5.80838">
        <ele>343.099942</ele>
        <time>2023-01-24T00:05:46.318Z</time>
      </trkpt>
      <trkpt lat="49.64209" lon="5.80832">
        <ele>342.996675</ele>
        <time>2023-01-24T00:05:48.066Z</time>
      </trkpt>
      <trkpt lat="49.64101" lon="5.80699">
        <ele>339.103885</ele>
        <time>2023-01-24T00:06:30.675Z</time>
      </trkpt>
      <trkpt lat="49.6405" lon="5.80617">
        <ele>335.684519</ele>
        <time>2023-01-24T00:06:42.447Z</time>
      </trkpt>
      <trkpt lat="49.64028" lon="5.80577">
        <ele>334.149757</ele>
        <time>2023-01-24T00:06:47.663Z</time>
      </trkpt>
      <trkpt lat="49.64013" lon="5.80536">
        <ele>332.800537</ele>
        <time>2023-01-24T00:06:52.388Z</time>
      </trkpt>
      <trkpt lat="49.63997" lon="5.8047">
        <ele>330.908775</ele>
        <time>2023-01-24T00:06:59.544Z</time>
      </trkpt>
      <trkpt lat="49.63988" lon="5.80451">
        <ele>330.271212</ele>
        <time>2023-01-24T00:07:01.896Z</time>
      </trkpt>
      <trkpt lat="49.63957" lon="5.80409">
        <ele>328.578473</ele>
        <time>2023-01-24T00:07:08.721Z</time>
      </trkpt>
      <trkpt lat="49.63929" lon="5.80379">
        <ele>327.144679</ele>
        <time>2023-01-24T00:07:14.580Z</time>
      </trkpt>
      <trkpt lat="49.63908" lon="5.80363">
        <ele>326.174294</ele>
        <time>2023-01-24T00:07:18.647Z</time>
      </trkpt>
      <trkpt lat="49.63846" lon="5.8033">
        <ele>324.994137</ele>
        <time>2023-01-24T00:07:30.949Z</time>
      </trkpt>
      <trkpt lat="49.63824" lon="5.80328">
        <ele>324.675319</ele>
        <time>2023-01-24T00:07:35.585Z</time>
      </trkpt>
      <trkpt lat="49.63795" lon="5.80336">
        <ele>324.248364</ele>
        <time>2023-01-24T00:07:41.705Z</time>
      </trkpt>
      <trkpt lat="49.63779" lon="5.80336">
        <ele>324.016234</ele>
        <time>2023-01-24T00:07:45.005Z</time>
      </trkpt>
      <trkpt lat="49.63705" lon="5.80316">
        <ele>322.882354</ele>
        <time>2023-01-24T00:08:01.009Z</time>
      </trkpt>
      <trkpt lat="49.63613" lon="5.80247">
        <ele>321.24605</ele>
        <time>2023-01-24T00:08:21.706Z</time>
      </trkpt>
      <trkpt lat="49.63578" lon="5.80228">
        <ele>320.656891</ele>
        <time>2023-01-24T00:08:28.691Z</time>
      </trkpt>
      <trkpt lat="49.63532" lon="5.80209">
        <ele>319.289604</ele>
        <time>2023-01-24T00:08:37.575Z</time>
      </trkpt>
      <trkpt lat="49.63515" lon="5.80205">
        <ele>318.617286</ele>
        <time>2023-01-24T00:08:40.714Z</time>
      </trkpt>
      <trkpt lat="49.63462" lon="5.8016">
        <ele>316.244345</ele>
        <time>2023-01-24T00:08:50.733Z</time>
      </trkpt>
      <trkpt lat="49.63453" lon="5.80148">
        <ele>315.765912</ele>
        <time>2023-01-24T00:08:52.769Z</time>
      </trkpt>
      <trkpt lat="49.6342" lon="5.80096">
        <ele>313.923226</ele>
        <time>2023-01-24T00:09:00.286Z</time>
      </trkpt>
      <trkpt lat="49.63388" lon="5.80013">
        <ele>310.988781</ele>
        <time>2023-01-24T00:09:10.176Z</time>
      </trkpt>
      <trkpt lat="49.63389" lon="5.8">
        <ele>310.573211</ele>
        <time>2023-01-24T00:09:11.545Z</time>
      </trkpt>
      <trkpt lat="49.63389" lon="5.79917">
        <ele>307.884696</ele>
        <time>2023-01-24T00:09:20.399Z</time>
      </trkpt>
      <trkpt lat="49.63396" lon="5.79866">
        <ele>306.222764</ele>
        <time>2023-01-24T00:09:25.909Z</time>
      </trkpt>
      <trkpt lat="49.63396" lon="5.79807">
        <ele>304.348372</ele>
        <time>2023-01-24T00:09:32.410Z</time>
      </trkpt>
      <trkpt lat="49.63399" lon="5.79773">
        <ele>304.00819</ele>
        <time>2023-01-24T00:09:36.358Z</time>
      </trkpt>
      <trkpt lat="49.63398" lon="5.7976">
        <ele>303.884095</ele>
        <time>2023-01-24T00:09:37.663Z</time>
      </trkpt>
      <trkpt lat="49.63405" lon="5.79759">
        <ele>303.769351</ele>
        <time>2023-01-24T00:09:39.267Z</time>
      </trkpt>
      <trkpt lat="49.63398" lon="5.7976">
        <ele>303.654607</ele>
        <time>2023-01-24T00:09:40.707Z</time>
      </trkpt>
      <trkpt lat="49.63393" lon="5.79697">
        <ele>303.026322</ele>
        <time>2023-01-24T00:09:48.640Z</time>
      </trkpt>
      <trkpt lat="49.63393" lon="5.79672">
        <ele>302.77532</ele>
        <time>2023-01-24T00:09:51.652Z</time>
      </trkpt>
      <trkpt lat="49.63414" lon="5.79578">
        <ele>301.79399</ele>
        <time>2023-01-24T00:10:06.881Z</time>
      </trkpt>
      <trkpt lat="49.63413" lon="5.79559">
        <ele>301.632058</ele>
        <time>2023-01-24T00:10:09.402Z</time>
      </trkpt>
      <trkpt lat="49.63408" lon="5.79543">
        <ele>301.870001</ele>
        <time>2023-01-24T00:10:12.901Z</time>
      </trkpt>
      <trkpt lat="49.63403" lon="5.79532">
        <ele>302.05106</ele>
        <time>2023-01-24T00:10:15.573Z</time>
      </trkpt>
      <trkpt lat="49.6333" lon="5.79364">
        <ele>304.776639</ele>
        <time>2023-01-24T00:11:01.683Z</time>
      </trkpt>
      <trkpt lat="49.63372" lon="5.79299">
        <ele>306.013728</ele>
        <time>2023-01-24T00:11:23.312Z</time>
      </trkpt>
      <trkpt lat="49.63401" lon="5.79233">
        <ele>307.072982</ele>
        <time>2023-01-24T00:11:40.946Z</time>
      </trkpt>
      <trkpt lat="49.63425" lon="5.79164">
        <ele>308.113051</ele>
        <time>2023-01-24T00:11:57.656Z</time>
      </trkpt>
      <trkpt lat="49.63443" lon="5.7909">
        <ele>309.067719</ele>
        <time>2023-01-24T00:12:12.853Z</time>
      </trkpt>
      <trkpt lat="49.63451" lon="5.79017">
        <ele>309.152143</ele>
        <time>2023-01-24T00:12:25.196Z</time>
      </trkpt>
      <trkpt lat="49.63454" lon="5.78956">
        <ele>309.222301</ele>
        <time>2023-01-24T00:12:34.819Z</time>
      </trkpt>
      <trkpt lat="49.63466" lon="5.78859">
        <ele>309.335193</ele>
        <time>2023-01-24T00:12:49.052Z</time>
      </trkpt>
      <trkpt lat="49.63483" lon="5.78779">
        <ele>308.934997</ele>
        <time>2023-01-24T00:12:59.798Z</time>
      </trkpt>
      <trkpt lat="49.63516" lon="5.78697">
        <ele>308.056193</ele>
        <time>2023-01-24T00:13:11.705Z</time>
      </trkpt>
      <trkpt lat="49.63533" lon="5.78626">
        <ele>307.364452</ele>
        <time>2023-01-24T00:13:20.859Z</time>
      </trkpt>
      <trkpt lat="49.63541" lon="5.78586">
        <ele>306.983955</ele>
        <time>2023-01-24T00:13:25.844Z</time>
      </trkpt>
      <trkpt lat="49.63563" lon="5.78501">
        <ele>306.397616</ele>
        <time>2023-01-24T00:13:37.165Z</time>
      </trkpt>
      <trkpt lat="49.63606" lon="5.78389">
        <ele>305.63779</ele>
        <time>2023-01-24T00:13:53.635Z</time>
      </trkpt>
      <trkpt lat="49.63662" lon="5.78252">
        <ele>305.704361</ele>
        <time>2023-01-24T00:14:18.185Z</time>
      </trkpt>
      <trkpt lat="49.63672" lon="5.78216">
        <ele>305.906884</ele>
        <time>2023-01-24T00:14:24.740Z</time>
      </trkpt>
      <trkpt lat="49.63676" lon="5.78186">
        <ele>306.068392</ele>
        <time>2023-01-24T00:14:30.542Z</time>
      </trkpt>
      <trkpt lat="49.63677" lon="5.78156">
        <ele>306.227952</ele>
        <time>2023-01-24T00:14:35.795Z</time>
      </trkpt>
      <trkpt lat="49.63677" lon="5.78041">
        <ele>306.93247</ele>
        <time>2023-01-24T00:14:57.140Z</time>
      </trkpt>
      <trkpt lat="49.63681" lon="5.77991">
        <ele>307.381617</ele>
        <time>2023-01-24T00:15:06.855Z</time>
      </trkpt>
      <trkpt lat="49.63689" lon="5.77897">
        <ele>308.229138</ele>
        <time>2023-01-24T00:15:24.562Z</time>
      </trkpt>
      <trkpt lat="49.6369" lon="5.77866">
        <ele>308.502896</ele>
        <time>2023-01-24T00:15:30.191Z</time>
      </trkpt>
      <trkpt lat="49.63688" lon="5.77821">
        <ele>308.907137</ele>
        <time>2023-01-24T00:15:38.717Z</time>
      </trkpt>
      <trkpt lat="49.63674" lon="5.77692">
        <ele>310.275707</ele>
        <time>2023-01-24T00:16:04.612Z</time>
      </trkpt>
      <trkpt lat="49.63671" lon="5.7765">
        <ele>310.733095</ele>
        <time>2023-01-24T00:16:12.964Z</time>
      </trkpt>
      <trkpt lat="49.6367" lon="5.77576">
        <ele>311.538861</ele>
        <time>2023-01-24T00:16:27.719Z</time>
      </trkpt>
      <trkpt lat="49.63678" lon="5.77478">
        <ele>312.557244</ele>
        <time>2023-01-24T00:16:47.729Z</time>
      </trkpt>
      <trkpt lat="49.63681" lon="5.77435">
        <ele>312.966552</ele>
        <time>2023-01-24T00:16:56.474Z</time>
      </trkpt>
      <trkpt lat="49.63679" lon="5.77409">
        <ele>313.21108</ele>
        <time>2023-01-24T00:17:01.897Z</time>
      </trkpt>
      <trkpt lat="49.63658" lon="5.77229">
        <ele>314.839804</ele>
        <time>2023-01-24T00:17:37.042Z</time>
      </trkpt>
      <trkpt lat="49.63651" lon="5.77157">
        <ele>315.006389</ele>
        <time>2023-01-24T00:17:47.382Z</time>
      </trkpt>
      <trkpt lat="49.63646" lon="5.77152">
        <ele>315.027854</ele>
        <time>2023-01-24T00:17:48.709Z</time>
      </trkpt>
      <trkpt lat="49.63615" lon="5.77039">
        <ele>315.310574</ele>
        <time>2023-01-24T00:18:06.302Z</time>
      </trkpt>
      <trkpt lat="49.6361" lon="5.77031">
        <ele>315.337799</ele>
        <time>2023-01-24T00:18:08.158Z</time>
      </trkpt>
      <trkpt lat="49.63604" lon="5.77024">
        <ele>315.364668</ele>
        <time>2023-01-24T00:18:09.783Z</time>
      </trkpt>
      <trkpt lat="49.63567" lon="5.77013">
        <ele>315.638679</ele>
        <time>2023-01-24T00:18:19.468Z</time>
      </trkpt>
      <trkpt lat="49.63559" lon="5.77011">
        <ele>315.747786</ele>
        <time>2023-01-24T00:18:21.516Z</time>
      </trkpt>
      <trkpt lat="49.63516" lon="5.76997">
        <ele>316.341413</ele>
        <time>2023-01-24T00:18:32.535Z</time>
      </trkpt>
      <trkpt lat="49.63506" lon="5.76995">
        <ele>316.482243</ele>
        <time>2023-01-24T00:18:35.468Z</time>
      </trkpt>
      <trkpt lat="49.63501" lon="5.76994">
        <ele>316.542194</ele>
        <time>2023-01-24T00:18:36.450Z</time>
      </trkpt>
      <trkpt lat="49.63406" lon="5.76964">
        <ele>317.849579</ele>
        <time>2023-01-24T00:19:06.707Z</time>
      </trkpt>
      <trkpt lat="49.6338" lon="5.7695">
        <ele>318.456995</ele>
        <time>2023-01-24T00:19:16.743Z</time>
      </trkpt>
      <trkpt lat="49.63283" lon="5.76886">
        <ele>320.879505</ele>
        <time>2023-01-24T00:19:54.198Z</time>
      </trkpt>
      <trkpt lat="49.63161" lon="5.76765">
        <ele>324.150694</ele>
        <time>2023-01-24T00:20:39.023Z</time>
      </trkpt>
      <trkpt lat="49.63138" lon="5.76748">
        <ele>324.711086</ele>
        <time>2023-01-24T00:20:47.238Z</time>
      </trkpt>
      <trkpt lat="49.631" lon="5.7673">
        <ele>325.605651</ele>
        <time>2023-01-24T00:21:01.189Z</time>
      </trkpt>
      <trkpt lat="49.63058" lon="5.76716">
        <ele>327.004509</ele>
        <time>2023-01-24T00:21:17.532Z</time>
      </trkpt>
      <trkpt lat="49.62879" lon="5.76684">
        <ele>334.750173</ele>
        <time>2023-01-24T00:22:34.622Z</time>
      </trkpt>
      <trkpt lat="49.62877" lon="5.76639">
        <ele>336.615435</ele>
        <time>2023-01-24T00:22:53.681Z</time>
      </trkpt>
      <trkpt lat="49.62872" lon="5.76603">
        <ele>338.131682</ele>
        <time>2023-01-24T00:23:09.329Z</time>
      </trkpt>
      <trkpt lat="49.62856" lon="5.76554">
        <ele>340.396215</ele>
        <time>2023-01-24T00:23:33.971Z</time>
      </trkpt>
      <trkpt lat="49.62845" lon="5.76497">
        <ele>342.865136</ele>
        <time>2023-01-24T00:24:02.896Z</time>
      </trkpt>
      <trkpt lat="49.62835" lon="5.7642">
        <ele>346.907121</ele>
        <time>2023-01-24T00:24:42.326Z</time>
      </trkpt>
      <trkpt lat="49.62835" lon="5.76357">
        <ele>350.817487</ele>
        <time>2023-01-24T00:25:15.684Z</time>
      </trkpt>
      <trkpt lat="49.62824" lon="5.76312">
        <ele>353.851917</ele>
        <time>2023-01-24T00:25:44.905Z</time>
      </trkpt>
      <trkpt lat="49.62755" lon="5.76137">
        <ele>365.487074</ele>
        <time>2023-01-24T00:27:41.485Z</time>
      </trkpt>
      <trkpt lat="49.62746" lon="5.76107">
        <ele>367.065018</ele>
        <time>2023-01-24T00:28:00.943Z</time>
      </trkpt>
      <trkpt lat="49.6273" lon="5.76057">
        <ele>369.715212</ele>
        <time>2023-01-24T00:28:27.149Z</time>
      </trkpt>
      <trkpt lat="49.62695" lon="5.75978">
        <ele>374.261709</ele>
        <time>2023-01-24T00:29:07.101Z</time>
      </trkpt>
      <trkpt lat="49.62689" lon="5.75969">
        <ele>374.826852</ele>
        <time>2023-01-24T00:29:13.727Z</time>
      </trkpt>
      <trkpt lat="49.62572" lon="5.75773">
        <ele>379.056609</ele>
        <time>2023-01-24T00:30:35.276Z</time>
      </trkpt>
      <trkpt lat="49.62544" lon="5.75704">
        <ele>379.781214</ele>
        <time>2023-01-24T00:30:57.148Z</time>
      </trkpt>
      <trkpt lat="49.62522" lon="5.7566">
        <ele>380.190452</ele>
        <time>2023-01-24T00:31:12.432Z</time>
      </trkpt>
      <trkpt lat="49.62444" lon="5.75547">
        <ele>381.384371</ele>
        <time>2023-01-24T00:31:58.023Z</time>
      </trkpt>
      <trkpt lat="49.62375" lon="5.75457">
        <ele>382.173243</ele>
        <time>2023-01-24T00:32:36.616Z</time>
      </trkpt>
      <trkpt lat="49.6233" lon="5.75366">
        <ele>382.82107</ele>
        <time>2023-01-24T00:33:06.865Z</time>
      </trkpt>
      <trkpt lat="49.62251" lon="5.75266">
        <ele>383.136467</ele>
        <time>2023-01-24T00:33:45.924Z</time>
      </trkpt>
      <trkpt lat="49.62236" lon="5.7524">
        <ele>383.191211</ele>
        <time>2023-01-24T00:33:54.189Z</time>
      </trkpt>
      <trkpt lat="49.6221" lon="5.75178">
        <ele>383.307173</ele>
        <time>2023-01-24T00:34:12.036Z</time>
      </trkpt>
      <trkpt lat="49.62201" lon="5.75115">
        <ele>383.498653</ele>
        <time>2023-01-24T00:34:22.394Z</time>
      </trkpt>
      <trkpt lat="49.62202" lon="5.75076">
        <ele>383.65214</ele>
        <time>2023-01-24T00:34:28.897Z</time>
      </trkpt>
      <trkpt lat="49.62211" lon="5.7499">
        <ele>383.99938</ele>
        <time>2023-01-24T00:34:43.772Z</time>
      </trkpt>
      <trkpt lat="49.62212" lon="5.7496">
        <ele>384.118292</ele>
        <time>2023-01-24T00:34:49.336Z</time>
      </trkpt>
      <trkpt lat="49.62204" lon="5.74844">
        <ele>384.574044</ele>
        <time>2023-01-24T00:35:09.787Z</time>
      </trkpt>
      <trkpt lat="49.62185" lon="5.74737">
        <ele>384.998033</ele>
        <time>2023-01-24T00:35:29.543Z</time>
      </trkpt>
      <trkpt lat="49.6217" lon="5.74636">
        <ele>385.392186</ele>
        <time>2023-01-24T00:35:46.508Z</time>
      </trkpt>
      <trkpt lat="49.62121" lon="5.74433">
        <ele>385.714759</ele>
        <time>2023-01-24T00:36:19.636Z</time>
      </trkpt>
      <trkpt lat="49.61983" lon="5.73923">
        <ele>386.707423</ele>
        <time>2023-01-24T00:37:46.381Z</time>
      </trkpt>
      <trkpt lat="49.61948" lon="5.73815">
        <ele>387.13066</ele>
        <time>2023-01-24T00:38:07.888Z</time>
      </trkpt>
      <trkpt lat="49.61933" lon="5.73774">
        <ele>387.380428</ele>
        <time>2023-01-24T00:38:16.692Z</time>
      </trkpt>
      <trkpt lat="49.61874" lon="5.73662">
        <ele>388.166451</ele>
        <time>2023-01-24T00:38:41.359Z</time>
      </trkpt>
      <trkpt lat="49.61853" lon="5.73617">
        <ele>388.460821</ele>
        <time>2023-01-24T00:38:51.132Z</time>
      </trkpt>
      <trkpt lat="49.61838" lon="5.73576">
        <ele>388.75526</ele>
        <time>2023-01-24T00:39:00.136Z</time>
      </trkpt>
      <trkpt lat="49.61815" lon="5.73484">
        <ele>389.367526</ele>
        <time>2023-01-24T00:39:19.058Z</time>
      </trkpt>
      <trkpt lat="49.61782" lon="5.734">
        <ele>389.979612</ele>
        <time>2023-01-24T00:39:38.654Z</time>
      </trkpt>
      <trkpt lat="49.61729" lon="5.73293">
        <ele>389.964071</ele>
        <time>2023-01-24T00:39:57.997Z</time>
      </trkpt>
      <trkpt lat="49.61672" lon="5.73201">
        <ele>389.638716</ele>
        <time>2023-01-24T00:40:17.038Z</time>
      </trkpt>
      <trkpt lat="49.61668" lon="5.7319">
        <ele>389.605608</ele>
        <time>2023-01-24T00:40:18.507Z</time>
      </trkpt>
      <trkpt lat="49.61656" lon="5.73184">
        <ele>389.556793</ele>
        <time>2023-01-24T00:40:22.645Z</time>
      </trkpt>
      <trkpt lat="49.61633" lon="5.73162">
        <ele>389.350789</ele>
        <time>2023-01-24T00:40:31.983Z</time>
      </trkpt>
      <trkpt lat="49.61555" lon="5.73113">
        <ele>388.362539</ele>
        <time>2023-01-24T00:40:59.880Z</time>
      </trkpt>
      <trkpt lat="49.61507" lon="5.73046">
        <ele>387.601465</ele>
        <time>2023-01-24T00:41:21.976Z</time>
      </trkpt>
      <trkpt lat="49.61483" lon="5.73021">
        <ele>387.349376</ele>
        <time>2023-01-24T00:41:32.489Z</time>
      </trkpt>
      <trkpt lat="49.61462" lon="5.73013">
        <ele>387.265762</ele>
        <time>2023-01-24T00:41:40.570Z</time>
      </trkpt>
      <trkpt lat="49.61338" lon="5.72983">
        <ele>386.797405</ele>
        <time>2023-01-24T00:42:25.490Z</time>
      </trkpt>
      <trkpt lat="49.61245" lon="5.72966">
        <ele>386.764128</ele>
        <time>2023-01-24T00:43:00.208Z</time>
      </trkpt>
      <trkpt lat="49.61201" lon="5.72941">
        <ele>386.794613</ele>
        <time>2023-01-24T00:43:17.212Z</time>
      </trkpt>
      <trkpt lat="49.61192" lon="5.72938">
        <ele>386.800915</ele>
        <time>2023-01-24T00:43:20.648Z</time>
      </trkpt>
      <trkpt lat="49.61172" lon="5.72944">
        <ele>386.814838</ele>
        <time>2023-01-24T00:43:28.960Z</time>
      </trkpt>
      <trkpt lat="49.61172" lon="5.72944">
        <ele>386.814838</ele>
        <time>2023-01-24T00:43:28.998Z</time>
      </trkpt>
      <trkpt lat="49.61128" lon="5.72985">
        <ele>386.396014</ele>
        <time>2023-01-24T00:43:49.359Z</time>
      </trkpt>
      <trkpt lat="49.61118" lon="5.7299">
        <ele>386.178741</ele>
        <time>2023-01-24T00:43:53.612Z</time>
      </trkpt>
      <trkpt lat="49.61057" lon="5.72986">
        <ele>384.875876</ele>
        <time>2023-01-24T00:44:15.812Z</time>
      </trkpt>
      <trkpt lat="49.61075" lon="5.72948">
        <ele>384.218839</ele>
        <time>2023-01-24T00:44:20.954Z</time>
      </trkpt>
      <trkpt lat="49.61087" lon="5.72929">
        <ele>383.860184</ele>
        <time>2023-01-24T00:44:23.692Z</time>
      </trkpt>
      <trkpt lat="49.61127" lon="5.72876">
        <ele>382.198275</ele>
        <time>2023-01-24T00:44:32.136Z</time>
      </trkpt>
      <trkpt lat="49.61093" lon="5.72798">
        <ele>378.149394</ele>
        <time>2023-01-24T00:44:49.749Z</time>
      </trkpt>
      <trkpt lat="49.61076" lon="5.72782">
        <ele>376.871173</ele>
        <time>2023-01-24T00:44:54.913Z</time>
      </trkpt>
      <trkpt lat="49.61052" lon="5.72768">
        <ele>375.186888</ele>
        <time>2023-01-24T00:45:02.148Z</time>
      </trkpt>
      <trkpt lat="49.61023" lon="5.72761">
        <ele>373.24597</ele>
        <time>2023-01-24T00:45:10.165Z</time>
      </trkpt>
      <trkpt lat="49.61009" lon="5.72763">
        <ele>372.311071</ele>
        <time>2023-01-24T00:45:13.808Z</time>
      </trkpt>
      <trkpt lat="49.6095" lon="5.72783">
        <ele>366.74974</ele>
        <time>2023-01-24T00:45:29.793Z</time>
      </trkpt>
      <trkpt lat="49.60901" lon="5.72784">
        <ele>361.622807</ele>
        <time>2023-01-24T00:45:42.626Z</time>
      </trkpt>
      <trkpt lat="49.60866" lon="5.72795">
        <ele>357.907335</ele>
        <time>2023-01-24T00:45:51.780Z</time>
      </trkpt>
      <trkpt lat="49.60842" lon="5.72813">
        <ele>355.099796</ele>
        <time>2023-01-24T00:45:58.539Z</time>
      </trkpt>
      <trkpt lat="49.60812" lon="5.72812">
        <ele>351.874375</ele>
        <time>2023-01-24T00:46:05.833Z</time>
      </trkpt>
      <trkpt lat="49.60628" lon="5.72773">
        <ele>327.372619</ele>
        <time>2023-01-24T00:46:51.007Z</time>
      </trkpt>
      <trkpt lat="49.60503" lon="5.72741">
        <ele>318.623918</ele>
        <time>2023-01-24T00:47:25.070Z</time>
      </trkpt>
      <trkpt lat="49.60495" lon="5.72733">
        <ele>318.02418</ele>
        <time>2023-01-24T00:47:27.528Z</time>
      </trkpt>
      <trkpt lat="49.60494" lon="5.72727">
        <ele>317.719699</ele>
        <time>2023-01-24T00:47:28.880Z</time>
      </trkpt>
      <trkpt lat="49.60498" lon="5.72691">
        <ele>316.093233</ele>
        <time>2023-01-24T00:47:36.921Z</time>
      </trkpt>
      <trkpt lat="49.60495" lon="5.7268">
        <ele>315.679825</ele>
        <time>2023-01-24T00:47:39.171Z</time>
      </trkpt>
      <trkpt lat="49.6047" lon="5.72677">
        <ele>315.56644</ele>
        <time>2023-01-24T00:47:52.093Z</time>
      </trkpt>
      <trkpt lat="49.60431" lon="5.72679">
        <ele>315.3922</ele>
        <time>2023-01-24T00:48:08.519Z</time>
      </trkpt>
      <trkpt lat="49.60423" lon="5.72674">
        <ele>315.351055</ele>
        <time>2023-01-24T00:48:11.355Z</time>
      </trkpt>
      <trkpt lat="49.60419" lon="5.72668">
        <ele>315.32534</ele>
        <time>2023-01-24T00:48:14.124Z</time>
      </trkpt>
      <trkpt lat="49.60399" lon="5.72604">
        <ele>315.119408</ele>
        <time>2023-01-24T00:48:35.930Z</time>
      </trkpt>
      <trkpt lat="49.60384" lon="5.72574">
        <ele>315.008735</ele>
        <time>2023-01-24T00:48:43.301Z</time>
      </trkpt>
      <trkpt lat="49.60375" lon="5.72568">
        <ele>314.964921</ele>
        <time>2023-01-24T00:48:51.389Z</time>
      </trkpt>
      <trkpt lat="49.60367" lon="5.72569">
        <ele>314.928363</ele>
        <time>2023-01-24T00:48:53.029Z</time>
      </trkpt>
      <trkpt lat="49.6036" lon="5.72576">
        <ele>314.892528</ele>
        <time>2023-01-24T00:48:54.911Z</time>
      </trkpt>
      <trkpt lat="49.60302" lon="5.72658">
        <ele>311.612545</ele>
        <time>2023-01-24T00:49:13.442Z</time>
      </trkpt>
      <trkpt lat="49.60274" lon="5.72693">
        <ele>310.021316</ele>
        <time>2023-01-24T00:49:21.759Z</time>
      </trkpt>
      <trkpt lat="49.60241" lon="5.72727">
        <ele>308.282231</ele>
        <time>2023-01-24T00:49:30.438Z</time>
      </trkpt>
      <trkpt lat="49.60186" lon="5.7277">
        <ele>304.807354</ele>
        <time>2023-01-24T00:49:42.926Z</time>
      </trkpt>
      <trkpt lat="49.60163" lon="5.72795">
        <ele>302.872216</ele>
        <time>2023-01-24T00:49:48.694Z</time>
      </trkpt>
      <trkpt lat="49.60121" lon="5.72856">
        <ele>298.945623</ele>
        <time>2023-01-24T00:50:00.468Z</time>
      </trkpt>
      <trkpt lat="49.6009" lon="5.72895">
        <ele>296.24169</ele>
        <time>2023-01-24T00:50:08.772Z</time>
      </trkpt>
      <trkpt lat="49.60068" lon="5.72917">
        <ele>294.581382</ele>
        <time>2023-01-24T00:50:14.453Z</time>
      </trkpt>
      <trkpt lat="49.60049" lon="5.72929">
        <ele>293.742788</ele>
        <time>2023-01-24T00:50:19.096Z</time>
      </trkpt>
      <trkpt lat="49.60032" lon="5.72934">
        <ele>293.044705</ele>
        <time>2023-01-24T00:50:22.795Z</time>
      </trkpt>
      <trkpt lat="49.60012" lon="5.72929">
        <ele>292.202592</ele>
        <time>2023-01-24T00:50:27.531Z</time>
      </trkpt>
      <trkpt lat="49.59996" lon="5.72919">
        <ele>291.492752</ele>
        <time>2023-01-24T00:50:31.287Z</time>
      </trkpt>
      <trkpt lat="49.59977" lon="5.72899">
        <ele>290.566328</ele>
        <time>2023-01-24T00:50:36.630Z</time>
      </trkpt>
      <trkpt lat="49.59941" lon="5.72845">
        <ele>288.485133</ele>
        <time>2023-01-24T00:50:48.303Z</time>
      </trkpt>
      <trkpt lat="49.59927" lon="5.72817">
        <ele>287.54496</ele>
        <time>2023-01-24T00:50:53.734Z</time>
      </trkpt>
      <trkpt lat="49.59916" lon="5.72783">
        <ele>286.983857</ele>
        <time>2023-01-24T00:50:59.508Z</time>
      </trkpt>
      <trkpt lat="49.59902" lon="5.7276">
        <ele>286.555728</ele>
        <time>2023-01-24T00:51:04.154Z</time>
      </trkpt>
      <trkpt lat="49.59876" lon="5.72716">
        <ele>285.743945</ele>
        <time>2023-01-24T00:51:11.635Z</time>
      </trkpt>
      <trkpt lat="49.59832" lon="5.72649">
        <ele>284.462368</ele>
        <time>2023-01-24T00:51:23.967Z</time>
      </trkpt>
      <trkpt lat="49.59822" lon="5.72646">
        <ele>284.235144</ele>
        <time>2023-01-24T00:51:26.221Z</time>
      </trkpt>
      <trkpt lat="49.59756" lon="5.72558">
        <ele>282.284025</ele>
        <time>2023-01-24T00:51:43.066Z</time>
      </trkpt>
      <trkpt lat="49.59742" lon="5.72548">
        <ele>281.908554</ele>
        <time>2023-01-24T00:51:46.151Z</time>
      </trkpt>
      <trkpt lat="49.59731" lon="5.72548">
        <ele>281.669002</ele>
        <time>2023-01-24T00:51:48.562Z</time>
      </trkpt>
      <trkpt lat="49.59718" lon="5.72559">
        <ele>281.326825</ele>
        <time>2023-01-24T00:51:51.165Z</time>
      </trkpt>
      <trkpt lat="49.59655" lon="5.72663">
        <ele>279.142131</ele>
        <time>2023-01-24T00:52:08.153Z</time>
      </trkpt>
      <trkpt lat="49.59611" lon="5.7275">
        <ele>277.307547</ele>
        <time>2023-01-24T00:52:20.583Z</time>
      </trkpt>
      <trkpt lat="49.59601" lon="5.72761">
        <ele>276.981306</ele>
        <time>2023-01-24T00:52:23.029Z</time>
      </trkpt>
      <trkpt lat="49.59591" lon="5.72766">
        <ele>276.70245</ele>
        <time>2023-01-24T00:52:24.856Z</time>
      </trkpt>
      <trkpt lat="49.59563" lon="5.72771">
        <ele>275.98921</ele>
        <time>2023-01-24T00:52:30.309Z</time>
      </trkpt>
      <trkpt lat="49.59552" lon="5.72776">
        <ele>275.680289</ele>
        <time>2023-01-24T00:52:32.324Z</time>
      </trkpt>
      <trkpt lat="49.59569" lon="5.72831">
        <ele>274.925096</ele>
        <time>2023-01-24T00:52:40.042Z</time>
      </trkpt>
      <trkpt lat="49.59582" lon="5.72883">
        <ele>275.299545</ele>
        <time>2023-01-24T00:52:47.695Z</time>
      </trkpt>
      <trkpt lat="49.59602" lon="5.72999">
        <ele>276.114812</ele>
        <time>2023-01-24T00:53:09.350Z</time>
      </trkpt>
      <trkpt lat="49.59566" lon="5.73017">
        <ele>276.512837</ele>
        <time>2023-01-24T00:53:23.749Z</time>
      </trkpt>
      <trkpt lat="49.59531" lon="5.7304">
        <ele>276.977382</ele>
        <time>2023-01-24T00:53:37.578Z</time>
      </trkpt>
      <trkpt lat="49.59507" lon="5.72976">
        <ele>277.666076</ele>
        <time>2023-01-24T00:53:54.684Z</time>
      </trkpt>
      <trkpt lat="49.59492" lon="5.72947">
        <ele>278.014412</ele>
        <time>2023-01-24T00:54:02.936Z</time>
      </trkpt>
      <trkpt lat="49.59475" lon="5.7292">
        <ele>278.369074</ele>
        <time>2023-01-24T00:54:11.148Z</time>
      </trkpt>
      <trkpt lat="49.59426" lon="5.72855">
        <ele>279.290471</ele>
        <time>2023-01-24T00:54:27.797Z</time>
      </trkpt>
      <trkpt lat="49.5942" lon="5.72848">
        <ele>279.164147</ele>
        <time>2023-01-24T00:54:29.288Z</time>
      </trkpt>
      <trkpt lat="49.59357" lon="5.72781">
        <ele>277.254269</ele>
        <time>2023-01-24T00:54:44.717Z</time>
      </trkpt>
      <trkpt lat="49.59336" lon="5.72765">
        <ele>276.672667</ele>
        <time>2023-01-24T00:54:48.948Z</time>
      </trkpt>
      <trkpt lat="49.59314" lon="5.72748">
        <ele>276.07199</ele>
        <time>2023-01-24T00:54:53.118Z</time>
      </trkpt>
      <trkpt lat="49.59291" lon="5.72741">
        <ele>275.488939</ele>
        <time>2023-01-24T00:54:57.251Z</time>
      </trkpt>
      <trkpt lat="49.59271" lon="5.72745">
        <ele>274.991799</ele>
        <time>2023-01-24T00:55:00.692Z</time>
      </trkpt>
      <trkpt lat="49.59259" lon="5.72749">
        <ele>274.587884</ele>
        <time>2023-01-24T00:55:02.923Z</time>
      </trkpt>
      <trkpt lat="49.59257" lon="5.72672">
        <ele>272.698848</ele>
        <time>2023-01-24T00:55:37.747Z</time>
      </trkpt>
      <trkpt lat="49.59258" lon="5.72642">
        <ele>271.966799</ele>
        <time>2023-01-24T00:55:51.238Z</time>
      </trkpt>
      <trkpt lat="49.59259" lon="5.72624">
        <ele>271.516398</ele>
        <time>2023-01-24T00:55:59.544Z</time>
      </trkpt>
      <trkpt lat="49.59259" lon="5.72621">
        <ele>271.452698</ele>
        <time>2023-01-24T00:56:00.737Z</time>
      </trkpt>
      <trkpt lat="49.59255" lon="5.7262">
        <ele>271.296158</ele>
        <time>2023-01-24T00:56:01.678Z</time>
      </trkpt>
      <trkpt lat="49.59225" lon="5.72607">
        <ele>270.136551</ele>
        <time>2023-01-24T00:56:08.715Z</time>
      </trkpt>
      <trkpt lat="49.59218" lon="5.72603">
        <ele>269.834671</ele>
        <time>2023-01-24T00:56:10.583Z</time>
      </trkpt>
      <trkpt lat="49.5921" lon="5.72596">
        <ele>269.492953</ele>
        <time>2023-01-24T00:56:12.746Z</time>
      </trkpt>
      <trkpt lat="49.59162" lon="5.72584">
        <ele>268.073526</ele>
        <time>2023-01-24T00:56:23.913Z</time>
      </trkpt>
      <trkpt lat="49.59159" lon="5.7258">
        <ele>268.073526</ele>
        <time>2023-01-24T00:56:24.975Z</time>
      </trkpt>
      <trkpt lat="49.59176" lon="5.72543">
        <ele>268.073526</ele>
        <time>2023-01-24T00:56:30.637Z</time>
      </trkpt>
      <trkpt lat="49.59195" lon="5.72498">
        <ele>268.073526</ele>
        <time>2023-01-24T00:56:37.754Z</time>
      </trkpt>
      <trkpt lat="49.59149" lon="5.72485">
        <ele>268.073526</ele>
        <time>2023-01-24T00:56:54.504Z</time>
      </trkpt>
      <trkpt lat="49.59148" lon="5.72485">
        <ele>268.073526</ele>
        <time>2023-01-24T00:56:54.648Z</time>
      </trkpt>
    </trkseg>
  </trk>
</gpx>